<?xml version="1.0" encoding="UTF-8" standalone="no" ?>
<gpx xmlns="http://www.topografix.com/GPX/1/1" xmlns:xsi="http://www.w3.org/2001/XMLSchema-instance" xsi:schemaLocation="http://www.topografix.com/GPX/1/1 http://www.topografix.com/GPX/1/1/gpx.xsd" version="1.1" creator="VisuGPX - https://www.visugpx.com">
  <metadata>
    <name>Balade découverte : entre belles résidences, resto et coucher de soleil</name>
    <desc><![CDATA[Un magnifique début de promenade parmi des résidences toutes plus belles les unes que les autres]]></desc>
  </metadata>
  <trk>
    <name><![CDATA[SityTrail - balade du soir J3]]></name>
    <trkseg>
      <trkpt lat="50.51336" lon="1.57766">
        <ele>12</ele>
        <time>2021-08-10T17:03:34.999Z</time>
      </trkpt>
      <trkpt lat="50.5134" lon="1.57763">
        <ele>10</ele>
        <time>2021-08-10T17:03:53.999Z</time>
      </trkpt>
      <trkpt lat="50.51339" lon="1.57774">
        <ele>12</ele>
        <time>2021-08-10T17:03:58.999Z</time>
      </trkpt>
      <trkpt lat="50.51341" lon="1.57776">
        <ele>12</ele>
        <time>2021-08-10T17:04:03.999Z</time>
      </trkpt>
      <trkpt lat="50.5136" lon="1.57804">
        <ele>13</ele>
        <time>2021-08-10T17:04:50.999Z</time>
      </trkpt>
      <trkpt lat="50.51417" lon="1.57831">
        <ele>15</ele>
        <time>2021-08-10T17:06:04.999Z</time>
      </trkpt>
      <trkpt lat="50.51416" lon="1.57826">
        <ele>15</ele>
        <time>2021-08-10T17:06:09.999Z</time>
      </trkpt>
      <trkpt lat="50.5142" lon="1.57831">
        <ele>15</ele>
        <time>2021-08-10T17:06:14.999Z</time>
      </trkpt>
      <trkpt lat="50.51425" lon="1.57836">
        <ele>15</ele>
        <time>2021-08-10T17:06:19.999Z</time>
      </trkpt>
      <trkpt lat="50.51429" lon="1.57842">
        <ele>15</ele>
        <time>2021-08-10T17:06:23.999Z</time>
      </trkpt>
      <trkpt lat="50.5143" lon="1.57851">
        <ele>17</ele>
        <time>2021-08-10T17:06:28.999Z</time>
      </trkpt>
      <trkpt lat="50.51435" lon="1.57859">
        <ele>17</ele>
        <time>2021-08-10T17:06:33.999Z</time>
      </trkpt>
      <trkpt lat="50.51438" lon="1.57869">
        <ele>17</ele>
        <time>2021-08-10T17:06:38.999Z</time>
      </trkpt>
      <trkpt lat="50.51442" lon="1.57864">
        <ele>17</ele>
        <time>2021-08-10T17:06:42.999Z</time>
      </trkpt>
      <trkpt lat="50.51448" lon="1.57862">
        <ele>17</ele>
        <time>2021-08-10T17:06:47.999Z</time>
      </trkpt>
      <trkpt lat="50.51454" lon="1.57862">
        <ele>17</ele>
        <time>2021-08-10T17:06:52.999Z</time>
      </trkpt>
      <trkpt lat="50.51459" lon="1.57858">
        <ele>16</ele>
        <time>2021-08-10T17:06:57.999Z</time>
      </trkpt>
      <trkpt lat="50.51464" lon="1.57857">
        <ele>16</ele>
        <time>2021-08-10T17:07:01.999Z</time>
      </trkpt>
      <trkpt lat="50.51469" lon="1.57854">
        <ele>16</ele>
        <time>2021-08-10T17:07:06.999Z</time>
      </trkpt>
      <trkpt lat="50.51472" lon="1.57849">
        <ele>16</ele>
        <time>2021-08-10T17:07:11.999Z</time>
      </trkpt>
      <trkpt lat="50.51475" lon="1.57843">
        <ele>15</ele>
        <time>2021-08-10T17:07:16.999Z</time>
      </trkpt>
      <trkpt lat="50.51481" lon="1.57843">
        <ele>15</ele>
        <time>2021-08-10T17:07:21.999Z</time>
      </trkpt>
      <trkpt lat="50.51487" lon="1.57844">
        <ele>13</ele>
        <time>2021-08-10T17:07:26.999Z</time>
      </trkpt>
      <trkpt lat="50.51491" lon="1.57844">
        <ele>13</ele>
        <time>2021-08-10T17:07:30.999Z</time>
      </trkpt>
      <trkpt lat="50.51496" lon="1.57842">
        <ele>13</ele>
        <time>2021-08-10T17:07:34.999Z</time>
      </trkpt>
      <trkpt lat="50.51503" lon="1.57841">
        <ele>13</ele>
        <time>2021-08-10T17:07:39.999Z</time>
      </trkpt>
      <trkpt lat="50.51509" lon="1.57841">
        <ele>13</ele>
        <time>2021-08-10T17:07:44.999Z</time>
      </trkpt>
      <trkpt lat="50.51515" lon="1.57842">
        <ele>12</ele>
        <time>2021-08-10T17:07:49.999Z</time>
      </trkpt>
      <trkpt lat="50.51519" lon="1.57843">
        <ele>12</ele>
        <time>2021-08-10T17:07:53.999Z</time>
      </trkpt>
      <trkpt lat="50.51521" lon="1.57843">
        <ele>12</ele>
        <time>2021-08-10T17:07:57.999Z</time>
      </trkpt>
      <trkpt lat="50.51522" lon="1.57844">
        <ele>12</ele>
        <time>2021-08-10T17:08:02.999Z</time>
      </trkpt>
      <trkpt lat="50.51527" lon="1.57847">
        <ele>12</ele>
        <time>2021-08-10T17:08:06.999Z</time>
      </trkpt>
      <trkpt lat="50.51534" lon="1.5785">
        <ele>15</ele>
        <time>2021-08-10T17:08:11.999Z</time>
      </trkpt>
      <trkpt lat="50.5154" lon="1.57854">
        <ele>15</ele>
        <time>2021-08-10T17:08:16.999Z</time>
      </trkpt>
      <trkpt lat="50.51546" lon="1.57856">
        <ele>14</ele>
        <time>2021-08-10T17:08:21.999Z</time>
      </trkpt>
      <trkpt lat="50.51551" lon="1.57857">
        <ele>14</ele>
        <time>2021-08-10T17:08:25.999Z</time>
      </trkpt>
      <trkpt lat="50.51557" lon="1.57857">
        <ele>14</ele>
        <time>2021-08-10T17:08:30.999Z</time>
      </trkpt>
      <trkpt lat="50.51564" lon="1.57861">
        <ele>14</ele>
        <time>2021-08-10T17:08:35.999Z</time>
      </trkpt>
      <trkpt lat="50.5157" lon="1.5786">
        <ele>13</ele>
        <time>2021-08-10T17:08:39.999Z</time>
      </trkpt>
      <trkpt lat="50.51576" lon="1.5786">
        <ele>13</ele>
        <time>2021-08-10T17:08:44.999Z</time>
      </trkpt>
      <trkpt lat="50.51582" lon="1.57861">
        <ele>13</ele>
        <time>2021-08-10T17:08:48.999Z</time>
      </trkpt>
      <trkpt lat="50.51589" lon="1.57861">
        <ele>13</ele>
        <time>2021-08-10T17:08:53.999Z</time>
      </trkpt>
      <trkpt lat="50.51594" lon="1.57861">
        <ele>13</ele>
        <time>2021-08-10T17:08:57.999Z</time>
      </trkpt>
      <trkpt lat="50.51599" lon="1.5786">
        <ele>12</ele>
        <time>2021-08-10T17:09:01.999Z</time>
      </trkpt>
      <trkpt lat="50.51605" lon="1.57858">
        <ele>12</ele>
        <time>2021-08-10T17:09:06.999Z</time>
      </trkpt>
      <trkpt lat="50.5161" lon="1.57856">
        <ele>12</ele>
        <time>2021-08-10T17:09:10.999Z</time>
      </trkpt>
      <trkpt lat="50.51608" lon="1.57864">
        <ele>12</ele>
        <time>2021-08-10T17:09:15.999Z</time>
      </trkpt>
      <trkpt lat="50.51607" lon="1.57865">
        <ele>12</ele>
        <time>2021-08-10T17:09:19.999Z</time>
      </trkpt>
      <trkpt lat="50.51609" lon="1.57866">
        <ele>12</ele>
        <time>2021-08-10T17:09:24.999Z</time>
      </trkpt>
      <trkpt lat="50.51609" lon="1.57873">
        <ele>12</ele>
        <time>2021-08-10T17:09:28.999Z</time>
      </trkpt>
      <trkpt lat="50.51609" lon="1.57882">
        <ele>12</ele>
        <time>2021-08-10T17:09:33.999Z</time>
      </trkpt>
      <trkpt lat="50.51609" lon="1.57889">
        <ele>12</ele>
        <time>2021-08-10T17:09:37.999Z</time>
      </trkpt>
      <trkpt lat="50.51613" lon="1.57893">
        <ele>12</ele>
        <time>2021-08-10T17:09:42.999Z</time>
      </trkpt>
      <trkpt lat="50.51619" lon="1.57894">
        <ele>12</ele>
        <time>2021-08-10T17:09:47.999Z</time>
      </trkpt>
      <trkpt lat="50.51619" lon="1.57902">
        <ele>12</ele>
        <time>2021-08-10T17:09:52.999Z</time>
      </trkpt>
      <trkpt lat="50.5162" lon="1.57909">
        <ele>15</ele>
        <time>2021-08-10T17:09:57.171Z</time>
      </trkpt>
      <trkpt lat="50.51626" lon="1.57915">
        <ele>13</ele>
        <time>2021-08-10T17:10:01.999Z</time>
      </trkpt>
      <trkpt lat="50.51627" lon="1.57925">
        <ele>13</ele>
        <time>2021-08-10T17:10:06.999Z</time>
      </trkpt>
      <trkpt lat="50.51625" lon="1.57935">
        <ele>15</ele>
        <time>2021-08-10T17:10:11.999Z</time>
      </trkpt>
      <trkpt lat="50.51624" lon="1.57945">
        <ele>16</ele>
        <time>2021-08-10T17:10:16.999Z</time>
      </trkpt>
      <trkpt lat="50.51623" lon="1.57956">
        <ele>16</ele>
        <time>2021-08-10T17:10:21.999Z</time>
      </trkpt>
      <trkpt lat="50.51622" lon="1.57966">
        <ele>17</ele>
        <time>2021-08-10T17:10:26.999Z</time>
      </trkpt>
      <trkpt lat="50.51621" lon="1.57974">
        <ele>17</ele>
        <time>2021-08-10T17:10:30.999Z</time>
      </trkpt>
      <trkpt lat="50.5162" lon="1.57983">
        <ele>17</ele>
        <time>2021-08-10T17:10:35.999Z</time>
      </trkpt>
      <trkpt lat="50.51619" lon="1.57991">
        <ele>18</ele>
        <time>2021-08-10T17:10:39.999Z</time>
      </trkpt>
      <trkpt lat="50.51619" lon="1.57997">
        <ele>18</ele>
        <time>2021-08-10T17:10:43.999Z</time>
      </trkpt>
      <trkpt lat="50.51618" lon="1.58007">
        <ele>18</ele>
        <time>2021-08-10T17:10:48.999Z</time>
      </trkpt>
      <trkpt lat="50.51618" lon="1.58017">
        <ele>17</ele>
        <time>2021-08-10T17:10:53.999Z</time>
      </trkpt>
      <trkpt lat="50.51617" lon="1.58027">
        <ele>17</ele>
        <time>2021-08-10T17:10:58.999Z</time>
      </trkpt>
      <trkpt lat="50.51616" lon="1.58037">
        <ele>17</ele>
        <time>2021-08-10T17:11:03.999Z</time>
      </trkpt>
      <trkpt lat="50.51616" lon="1.58045">
        <ele>17</ele>
        <time>2021-08-10T17:11:07.999Z</time>
      </trkpt>
      <trkpt lat="50.51615" lon="1.58053">
        <ele>17</ele>
        <time>2021-08-10T17:11:11.999Z</time>
      </trkpt>
      <trkpt lat="50.51615" lon="1.58064">
        <ele>17</ele>
        <time>2021-08-10T17:11:16.999Z</time>
      </trkpt>
      <trkpt lat="50.51619" lon="1.58072">
        <ele>16</ele>
        <time>2021-08-10T17:11:21.999Z</time>
      </trkpt>
      <trkpt lat="50.51621" lon="1.5808">
        <ele>16</ele>
        <time>2021-08-10T17:11:25.999Z</time>
      </trkpt>
      <trkpt lat="50.51621" lon="1.5809">
        <ele>16</ele>
        <time>2021-08-10T17:11:31.120Z</time>
      </trkpt>
      <trkpt lat="50.5162" lon="1.581">
        <ele>18</ele>
        <time>2021-08-10T17:11:35.999Z</time>
      </trkpt>
      <trkpt lat="50.51619" lon="1.5811">
        <ele>18</ele>
        <time>2021-08-10T17:11:40.999Z</time>
      </trkpt>
      <trkpt lat="50.51618" lon="1.5812">
        <ele>18</ele>
        <time>2021-08-10T17:11:45.999Z</time>
      </trkpt>
      <trkpt lat="50.51617" lon="1.5813">
        <ele>16</ele>
        <time>2021-08-10T17:11:50.999Z</time>
      </trkpt>
      <trkpt lat="50.51617" lon="1.5814">
        <ele>16</ele>
        <time>2021-08-10T17:11:55.999Z</time>
      </trkpt>
      <trkpt lat="50.51616" lon="1.5815">
        <ele>16</ele>
        <time>2021-08-10T17:12:00.999Z</time>
      </trkpt>
      <trkpt lat="50.51615" lon="1.58158">
        <ele>17</ele>
        <time>2021-08-10T17:12:04.999Z</time>
      </trkpt>
      <trkpt lat="50.51614" lon="1.58168">
        <ele>17</ele>
        <time>2021-08-10T17:12:09.999Z</time>
      </trkpt>
      <trkpt lat="50.51613" lon="1.58176">
        <ele>17</ele>
        <time>2021-08-10T17:12:13.999Z</time>
      </trkpt>
      <trkpt lat="50.51612" lon="1.58184">
        <ele>16</ele>
        <time>2021-08-10T17:12:17.999Z</time>
      </trkpt>
      <trkpt lat="50.51612" lon="1.58195">
        <ele>16</ele>
        <time>2021-08-10T17:12:22.999Z</time>
      </trkpt>
      <trkpt lat="50.51611" lon="1.58205">
        <ele>16</ele>
        <time>2021-08-10T17:12:27.999Z</time>
      </trkpt>
      <trkpt lat="50.5161" lon="1.58213">
        <ele>17</ele>
        <time>2021-08-10T17:12:31.999Z</time>
      </trkpt>
      <trkpt lat="50.51608" lon="1.58224">
        <ele>17</ele>
        <time>2021-08-10T17:12:36.999Z</time>
      </trkpt>
      <trkpt lat="50.51608" lon="1.58233">
        <ele>17</ele>
        <time>2021-08-10T17:12:41.999Z</time>
      </trkpt>
      <trkpt lat="50.51607" lon="1.58244">
        <ele>16</ele>
        <time>2021-08-10T17:12:46.999Z</time>
      </trkpt>
      <trkpt lat="50.51606" lon="1.58253">
        <ele>16</ele>
        <time>2021-08-10T17:12:51.999Z</time>
      </trkpt>
      <trkpt lat="50.51605" lon="1.58264">
        <ele>16</ele>
        <time>2021-08-10T17:12:56.999Z</time>
      </trkpt>
      <trkpt lat="50.51605" lon="1.58274">
        <ele>16</ele>
        <time>2021-08-10T17:13:01.999Z</time>
      </trkpt>
      <trkpt lat="50.51604" lon="1.58284">
        <ele>16</ele>
        <time>2021-08-10T17:13:06.999Z</time>
      </trkpt>
      <trkpt lat="50.51603" lon="1.58295">
        <ele>16</ele>
        <time>2021-08-10T17:13:11.999Z</time>
      </trkpt>
      <trkpt lat="50.51602" lon="1.58303">
        <ele>16</ele>
        <time>2021-08-10T17:13:15.999Z</time>
      </trkpt>
      <trkpt lat="50.516" lon="1.58313">
        <ele>16</ele>
        <time>2021-08-10T17:13:21.164Z</time>
      </trkpt>
      <trkpt lat="50.51599" lon="1.58324">
        <ele>16</ele>
        <time>2021-08-10T17:13:25.999Z</time>
      </trkpt>
      <trkpt lat="50.51599" lon="1.58334">
        <ele>16</ele>
        <time>2021-08-10T17:13:30.999Z</time>
      </trkpt>
      <trkpt lat="50.51598" lon="1.58342">
        <ele>16</ele>
        <time>2021-08-10T17:13:34.999Z</time>
      </trkpt>
      <trkpt lat="50.51598" lon="1.58353">
        <ele>15</ele>
        <time>2021-08-10T17:13:39.999Z</time>
      </trkpt>
      <trkpt lat="50.51597" lon="1.58361">
        <ele>16</ele>
        <time>2021-08-10T17:13:43.999Z</time>
      </trkpt>
      <trkpt lat="50.51596" lon="1.58371">
        <ele>16</ele>
        <time>2021-08-10T17:13:48.999Z</time>
      </trkpt>
      <trkpt lat="50.51595" lon="1.58379">
        <ele>15</ele>
        <time>2021-08-10T17:13:52.999Z</time>
      </trkpt>
      <trkpt lat="50.51594" lon="1.5839">
        <ele>15</ele>
        <time>2021-08-10T17:13:57.999Z</time>
      </trkpt>
      <trkpt lat="50.51593" lon="1.584">
        <ele>15</ele>
        <time>2021-08-10T17:14:02.999Z</time>
      </trkpt>
      <trkpt lat="50.51592" lon="1.58409">
        <ele>15</ele>
        <time>2021-08-10T17:14:06.999Z</time>
      </trkpt>
      <trkpt lat="50.51591" lon="1.5842">
        <ele>15</ele>
        <time>2021-08-10T17:14:11.999Z</time>
      </trkpt>
      <trkpt lat="50.5159" lon="1.5843">
        <ele>15</ele>
        <time>2021-08-10T17:14:16.999Z</time>
      </trkpt>
      <trkpt lat="50.51588" lon="1.5844">
        <ele>14</ele>
        <time>2021-08-10T17:14:21.999Z</time>
      </trkpt>
      <trkpt lat="50.51585" lon="1.58448">
        <ele>14</ele>
        <time>2021-08-10T17:14:25.999Z</time>
      </trkpt>
      <trkpt lat="50.51583" lon="1.58458">
        <ele>14</ele>
        <time>2021-08-10T17:14:30.999Z</time>
      </trkpt>
      <trkpt lat="50.51579" lon="1.58468">
        <ele>14</ele>
        <time>2021-08-10T17:14:35.999Z</time>
      </trkpt>
      <trkpt lat="50.51576" lon="1.58477">
        <ele>14</ele>
        <time>2021-08-10T17:14:40.999Z</time>
      </trkpt>
      <trkpt lat="50.51574" lon="1.58484">
        <ele>14</ele>
        <time>2021-08-10T17:14:44.999Z</time>
      </trkpt>
      <trkpt lat="50.51579" lon="1.5849">
        <ele>13</ele>
        <time>2021-08-10T17:14:49.999Z</time>
      </trkpt>
      <trkpt lat="50.51584" lon="1.58496">
        <ele>13</ele>
        <time>2021-08-10T17:14:54.999Z</time>
      </trkpt>
      <trkpt lat="50.5159" lon="1.58502">
        <ele>13</ele>
        <time>2021-08-10T17:14:59.999Z</time>
      </trkpt>
      <trkpt lat="50.51596" lon="1.58506">
        <ele>13</ele>
        <time>2021-08-10T17:15:04.999Z</time>
      </trkpt>
      <trkpt lat="50.51601" lon="1.58509">
        <ele>13</ele>
        <time>2021-08-10T17:15:08.999Z</time>
      </trkpt>
      <trkpt lat="50.51607" lon="1.58511">
        <ele>13</ele>
        <time>2021-08-10T17:15:13.999Z</time>
      </trkpt>
      <trkpt lat="50.51614" lon="1.58514">
        <ele>13</ele>
        <time>2021-08-10T17:15:18.999Z</time>
      </trkpt>
      <trkpt lat="50.51621" lon="1.58516">
        <ele>13</ele>
        <time>2021-08-10T17:15:23.999Z</time>
      </trkpt>
      <trkpt lat="50.51627" lon="1.58522">
        <ele>12</ele>
        <time>2021-08-10T17:15:28.999Z</time>
      </trkpt>
      <trkpt lat="50.5163" lon="1.58527">
        <ele>12</ele>
        <time>2021-08-10T17:15:33.999Z</time>
      </trkpt>
      <trkpt lat="50.51629" lon="1.58537">
        <ele>12</ele>
        <time>2021-08-10T17:15:38.999Z</time>
      </trkpt>
      <trkpt lat="50.51628" lon="1.58545">
        <ele>11</ele>
        <time>2021-08-10T17:15:42.999Z</time>
      </trkpt>
      <trkpt lat="50.51627" lon="1.58554">
        <ele>11</ele>
        <time>2021-08-10T17:15:47.999Z</time>
      </trkpt>
      <trkpt lat="50.51631" lon="1.58564">
        <ele>11</ele>
        <time>2021-08-10T17:15:52.999Z</time>
      </trkpt>
      <trkpt lat="50.51634" lon="1.58571">
        <ele>11</ele>
        <time>2021-08-10T17:15:56.999Z</time>
      </trkpt>
      <trkpt lat="50.51641" lon="1.58571">
        <ele>11</ele>
        <time>2021-08-10T17:16:01.999Z</time>
      </trkpt>
      <trkpt lat="50.51648" lon="1.58573">
        <ele>11</ele>
        <time>2021-08-10T17:16:06.999Z</time>
      </trkpt>
      <trkpt lat="50.51653" lon="1.58574">
        <ele>11</ele>
        <time>2021-08-10T17:16:10.999Z</time>
      </trkpt>
      <trkpt lat="50.5166" lon="1.58574">
        <ele>11</ele>
        <time>2021-08-10T17:16:15.999Z</time>
      </trkpt>
      <trkpt lat="50.51666" lon="1.58572">
        <ele>11</ele>
        <time>2021-08-10T17:16:20.999Z</time>
      </trkpt>
      <trkpt lat="50.51671" lon="1.58569">
        <ele>11</ele>
        <time>2021-08-10T17:16:24.999Z</time>
      </trkpt>
      <trkpt lat="50.51676" lon="1.58565">
        <ele>11</ele>
        <time>2021-08-10T17:16:29.999Z</time>
      </trkpt>
      <trkpt lat="50.51679" lon="1.58561">
        <ele>11</ele>
        <time>2021-08-10T17:16:34.999Z</time>
      </trkpt>
      <trkpt lat="50.5168" lon="1.5856">
        <ele>11</ele>
        <time>2021-08-10T17:16:38.999Z</time>
      </trkpt>
      <trkpt lat="50.51683" lon="1.58565">
        <ele>12</ele>
        <time>2021-08-10T17:16:43.999Z</time>
      </trkpt>
      <trkpt lat="50.51687" lon="1.58572">
        <ele>11</ele>
        <time>2021-08-10T17:16:48.999Z</time>
      </trkpt>
      <trkpt lat="50.51689" lon="1.58579">
        <ele>11</ele>
        <time>2021-08-10T17:16:52.999Z</time>
      </trkpt>
      <trkpt lat="50.51692" lon="1.58588">
        <ele>11</ele>
        <time>2021-08-10T17:16:57.999Z</time>
      </trkpt>
      <trkpt lat="50.51696" lon="1.58596">
        <ele>11</ele>
        <time>2021-08-10T17:17:02.999Z</time>
      </trkpt>
      <trkpt lat="50.51698" lon="1.58603">
        <ele>11</ele>
        <time>2021-08-10T17:17:06.999Z</time>
      </trkpt>
      <trkpt lat="50.51701" lon="1.58613">
        <ele>11</ele>
        <time>2021-08-10T17:17:11.999Z</time>
      </trkpt>
      <trkpt lat="50.51703" lon="1.58624">
        <ele>11</ele>
        <time>2021-08-10T17:17:16.999Z</time>
      </trkpt>
      <trkpt lat="50.51707" lon="1.58633">
        <ele>11</ele>
        <time>2021-08-10T17:17:21.999Z</time>
      </trkpt>
      <trkpt lat="50.5171" lon="1.58642">
        <ele>11</ele>
        <time>2021-08-10T17:17:26.999Z</time>
      </trkpt>
      <trkpt lat="50.51714" lon="1.58652">
        <ele>11</ele>
        <time>2021-08-10T17:17:31.999Z</time>
      </trkpt>
      <trkpt lat="50.51717" lon="1.58663">
        <ele>12</ele>
        <time>2021-08-10T17:17:36.999Z</time>
      </trkpt>
      <trkpt lat="50.5172" lon="1.58673">
        <ele>12</ele>
        <time>2021-08-10T17:17:41.999Z</time>
      </trkpt>
      <trkpt lat="50.51722" lon="1.58683">
        <ele>11</ele>
        <time>2021-08-10T17:17:46.999Z</time>
      </trkpt>
      <trkpt lat="50.51724" lon="1.58694">
        <ele>11</ele>
        <time>2021-08-10T17:17:51.999Z</time>
      </trkpt>
      <trkpt lat="50.51727" lon="1.58704">
        <ele>11</ele>
        <time>2021-08-10T17:17:56.999Z</time>
      </trkpt>
      <trkpt lat="50.51729" lon="1.58713">
        <ele>12</ele>
        <time>2021-08-10T17:18:01.999Z</time>
      </trkpt>
      <trkpt lat="50.51731" lon="1.58724">
        <ele>12</ele>
        <time>2021-08-10T17:18:06.999Z</time>
      </trkpt>
      <trkpt lat="50.51733" lon="1.58734">
        <ele>12</ele>
        <time>2021-08-10T17:18:10.999Z</time>
      </trkpt>
      <trkpt lat="50.51735" lon="1.58745">
        <ele>11</ele>
        <time>2021-08-10T17:18:15.999Z</time>
      </trkpt>
      <trkpt lat="50.51737" lon="1.58756">
        <ele>10</ele>
        <time>2021-08-10T17:18:21.172Z</time>
      </trkpt>
      <trkpt lat="50.51738" lon="1.58766">
        <ele>10</ele>
        <time>2021-08-10T17:18:25.999Z</time>
      </trkpt>
      <trkpt lat="50.5174" lon="1.58776">
        <ele>10</ele>
        <time>2021-08-10T17:18:30.999Z</time>
      </trkpt>
      <trkpt lat="50.51741" lon="1.58787">
        <ele>10</ele>
        <time>2021-08-10T17:18:35.999Z</time>
      </trkpt>
      <trkpt lat="50.51742" lon="1.58795">
        <ele>10</ele>
        <time>2021-08-10T17:18:39.999Z</time>
      </trkpt>
      <trkpt lat="50.51743" lon="1.58805">
        <ele>10</ele>
        <time>2021-08-10T17:18:44.999Z</time>
      </trkpt>
      <trkpt lat="50.51744" lon="1.58814">
        <ele>10</ele>
        <time>2021-08-10T17:18:48.999Z</time>
      </trkpt>
      <trkpt lat="50.51744" lon="1.58825">
        <ele>10</ele>
        <time>2021-08-10T17:18:53.999Z</time>
      </trkpt>
      <trkpt lat="50.51745" lon="1.58836">
        <ele>10</ele>
        <time>2021-08-10T17:18:58.999Z</time>
      </trkpt>
      <trkpt lat="50.51746" lon="1.58844">
        <ele>10</ele>
        <time>2021-08-10T17:19:02.999Z</time>
      </trkpt>
      <trkpt lat="50.51747" lon="1.58853">
        <ele>10</ele>
        <time>2021-08-10T17:19:06.999Z</time>
      </trkpt>
      <trkpt lat="50.51747" lon="1.58863">
        <ele>10</ele>
        <time>2021-08-10T17:19:11.999Z</time>
      </trkpt>
      <trkpt lat="50.51748" lon="1.58874">
        <ele>10</ele>
        <time>2021-08-10T17:19:16.999Z</time>
      </trkpt>
      <trkpt lat="50.51748" lon="1.58884">
        <ele>10</ele>
        <time>2021-08-10T17:19:21.999Z</time>
      </trkpt>
      <trkpt lat="50.51749" lon="1.58892">
        <ele>10</ele>
        <time>2021-08-10T17:19:25.999Z</time>
      </trkpt>
      <trkpt lat="50.51751" lon="1.589">
        <ele>10</ele>
        <time>2021-08-10T17:19:29.999Z</time>
      </trkpt>
      <trkpt lat="50.51755" lon="1.58909">
        <ele>10</ele>
        <time>2021-08-10T17:19:34.999Z</time>
      </trkpt>
      <trkpt lat="50.51759" lon="1.58919">
        <ele>10</ele>
        <time>2021-08-10T17:19:39.999Z</time>
      </trkpt>
      <trkpt lat="50.51759" lon="1.58928">
        <ele>10</ele>
        <time>2021-08-10T17:19:44.999Z</time>
      </trkpt>
      <trkpt lat="50.51758" lon="1.58937">
        <ele>10</ele>
        <time>2021-08-10T17:19:48.999Z</time>
      </trkpt>
      <trkpt lat="50.51755" lon="1.58946">
        <ele>10</ele>
        <time>2021-08-10T17:19:53.999Z</time>
      </trkpt>
      <trkpt lat="50.51752" lon="1.58954">
        <ele>10</ele>
        <time>2021-08-10T17:19:57.999Z</time>
      </trkpt>
      <trkpt lat="50.51753" lon="1.58963">
        <ele>10</ele>
        <time>2021-08-10T17:20:01.999Z</time>
      </trkpt>
      <trkpt lat="50.51754" lon="1.58973">
        <ele>10</ele>
        <time>2021-08-10T17:20:06.999Z</time>
      </trkpt>
      <trkpt lat="50.51754" lon="1.58983">
        <ele>10</ele>
        <time>2021-08-10T17:20:11.999Z</time>
      </trkpt>
      <trkpt lat="50.51755" lon="1.58992">
        <ele>9</ele>
        <time>2021-08-10T17:20:15.999Z</time>
      </trkpt>
      <trkpt lat="50.51756" lon="1.59002">
        <ele>9</ele>
        <time>2021-08-10T17:20:21.175Z</time>
      </trkpt>
      <trkpt lat="50.51758" lon="1.59012">
        <ele>9</ele>
        <time>2021-08-10T17:20:25.999Z</time>
      </trkpt>
      <trkpt lat="50.51762" lon="1.59019">
        <ele>10</ele>
        <time>2021-08-10T17:20:30.999Z</time>
      </trkpt>
      <trkpt lat="50.51763" lon="1.59021">
        <ele>10</ele>
        <time>2021-08-10T17:20:34.999Z</time>
      </trkpt>
      <trkpt lat="50.51763" lon="1.59022">
        <ele>10</ele>
        <time>2021-08-10T17:20:39.999Z</time>
      </trkpt>
      <trkpt lat="50.51763" lon="1.59022">
        <ele>10</ele>
        <time>2021-08-10T17:20:44.999Z</time>
      </trkpt>
      <trkpt lat="50.51763" lon="1.59022">
        <ele>10</ele>
        <time>2021-08-10T17:20:48.999Z</time>
      </trkpt>
      <trkpt lat="50.51765" lon="1.59028">
        <ele>11</ele>
        <time>2021-08-10T17:20:52.999Z</time>
      </trkpt>
      <trkpt lat="50.51772" lon="1.59031">
        <ele>11</ele>
        <time>2021-08-10T17:20:57.999Z</time>
      </trkpt>
      <trkpt lat="50.51779" lon="1.59031">
        <ele>11</ele>
        <time>2021-08-10T17:21:02.999Z</time>
      </trkpt>
      <trkpt lat="50.51785" lon="1.59032">
        <ele>11</ele>
        <time>2021-08-10T17:21:07.999Z</time>
      </trkpt>
      <trkpt lat="50.51792" lon="1.59033">
        <ele>13</ele>
        <time>2021-08-10T17:21:12.999Z</time>
      </trkpt>
      <trkpt lat="50.51798" lon="1.59034">
        <ele>13</ele>
        <time>2021-08-10T17:21:16.999Z</time>
      </trkpt>
      <trkpt lat="50.51804" lon="1.59037">
        <ele>13</ele>
        <time>2021-08-10T17:21:21.999Z</time>
      </trkpt>
      <trkpt lat="50.5181" lon="1.5904">
        <ele>13</ele>
        <time>2021-08-10T17:21:26.999Z</time>
      </trkpt>
      <trkpt lat="50.51814" lon="1.59046">
        <ele>12</ele>
        <time>2021-08-10T17:21:30.999Z</time>
      </trkpt>
      <trkpt lat="50.5182" lon="1.59052">
        <ele>13</ele>
        <time>2021-08-10T17:21:35.999Z</time>
      </trkpt>
      <trkpt lat="50.51825" lon="1.59059">
        <ele>13</ele>
        <time>2021-08-10T17:21:40.999Z</time>
      </trkpt>
      <trkpt lat="50.5183" lon="1.59066">
        <ele>13</ele>
        <time>2021-08-10T17:21:45.999Z</time>
      </trkpt>
      <trkpt lat="50.51832" lon="1.59072">
        <ele>13</ele>
        <time>2021-08-10T17:21:50.999Z</time>
      </trkpt>
      <trkpt lat="50.51833" lon="1.59074">
        <ele>13</ele>
        <time>2021-08-10T17:21:54.999Z</time>
      </trkpt>
      <trkpt lat="50.51836" lon="1.59081">
        <ele>13</ele>
        <time>2021-08-10T17:21:59.999Z</time>
      </trkpt>
      <trkpt lat="50.5184" lon="1.59092">
        <ele>13</ele>
        <time>2021-08-10T17:22:04.999Z</time>
      </trkpt>
      <trkpt lat="50.51844" lon="1.59099">
        <ele>14</ele>
        <time>2021-08-10T17:22:09.999Z</time>
      </trkpt>
      <trkpt lat="50.5185" lon="1.59106">
        <ele>13</ele>
        <time>2021-08-10T17:22:14.999Z</time>
      </trkpt>
      <trkpt lat="50.51855" lon="1.59114">
        <ele>13</ele>
        <time>2021-08-10T17:22:19.999Z</time>
      </trkpt>
      <trkpt lat="50.5186" lon="1.59123">
        <ele>13</ele>
        <time>2021-08-10T17:22:24.999Z</time>
      </trkpt>
      <trkpt lat="50.51864" lon="1.59131">
        <ele>14</ele>
        <time>2021-08-10T17:22:28.999Z</time>
      </trkpt>
      <trkpt lat="50.51868" lon="1.5914">
        <ele>14</ele>
        <time>2021-08-10T17:22:33.999Z</time>
      </trkpt>
      <trkpt lat="50.51873" lon="1.59148">
        <ele>14</ele>
        <time>2021-08-10T17:22:38.999Z</time>
      </trkpt>
      <trkpt lat="50.51879" lon="1.59155">
        <ele>13</ele>
        <time>2021-08-10T17:22:43.999Z</time>
      </trkpt>
      <trkpt lat="50.51883" lon="1.59161">
        <ele>13</ele>
        <time>2021-08-10T17:22:47.999Z</time>
      </trkpt>
      <trkpt lat="50.51887" lon="1.59168">
        <ele>13</ele>
        <time>2021-08-10T17:22:51.999Z</time>
      </trkpt>
      <trkpt lat="50.51892" lon="1.59176">
        <ele>13</ele>
        <time>2021-08-10T17:22:56.999Z</time>
      </trkpt>
      <trkpt lat="50.51895" lon="1.59182">
        <ele>13</ele>
        <time>2021-08-10T17:23:00.999Z</time>
      </trkpt>
      <trkpt lat="50.51898" lon="1.59193">
        <ele>13</ele>
        <time>2021-08-10T17:23:05.999Z</time>
      </trkpt>
      <trkpt lat="50.51901" lon="1.592">
        <ele>13</ele>
        <time>2021-08-10T17:23:09.999Z</time>
      </trkpt>
      <trkpt lat="50.51907" lon="1.59208">
        <ele>13</ele>
        <time>2021-08-10T17:23:14.999Z</time>
      </trkpt>
      <trkpt lat="50.51912" lon="1.59215">
        <ele>12</ele>
        <time>2021-08-10T17:23:19.999Z</time>
      </trkpt>
      <trkpt lat="50.51917" lon="1.59221">
        <ele>12</ele>
        <time>2021-08-10T17:23:23.999Z</time>
      </trkpt>
      <trkpt lat="50.51922" lon="1.59227">
        <ele>12</ele>
        <time>2021-08-10T17:23:28.999Z</time>
      </trkpt>
      <trkpt lat="50.51928" lon="1.59233">
        <ele>12</ele>
        <time>2021-08-10T17:23:33.999Z</time>
      </trkpt>
      <trkpt lat="50.51933" lon="1.5924">
        <ele>11</ele>
        <time>2021-08-10T17:23:38.999Z</time>
      </trkpt>
      <trkpt lat="50.51934" lon="1.59249">
        <ele>11</ele>
        <time>2021-08-10T17:23:43.999Z</time>
      </trkpt>
      <trkpt lat="50.51936" lon="1.59257">
        <ele>11</ele>
        <time>2021-08-10T17:23:47.999Z</time>
      </trkpt>
      <trkpt lat="50.51941" lon="1.59274">
        <ele>10</ele>
        <time>2021-08-10T17:24:06.999Z</time>
      </trkpt>
      <trkpt lat="50.51945" lon="1.59268">
        <ele>10</ele>
        <time>2021-08-10T17:24:11.999Z</time>
      </trkpt>
      <trkpt lat="50.5195" lon="1.59266">
        <ele>10</ele>
        <time>2021-08-10T17:24:15.999Z</time>
      </trkpt>
      <trkpt lat="50.51956" lon="1.59266">
        <ele>10</ele>
        <time>2021-08-10T17:24:20.999Z</time>
      </trkpt>
      <trkpt lat="50.51963" lon="1.59272">
        <ele>10</ele>
        <time>2021-08-10T17:24:25.999Z</time>
      </trkpt>
      <trkpt lat="50.51968" lon="1.59278">
        <ele>10</ele>
        <time>2021-08-10T17:24:30.999Z</time>
      </trkpt>
      <trkpt lat="50.51972" lon="1.59283">
        <ele>10</ele>
        <time>2021-08-10T17:24:34.999Z</time>
      </trkpt>
      <trkpt lat="50.51976" lon="1.59288">
        <ele>10</ele>
        <time>2021-08-10T17:24:38.999Z</time>
      </trkpt>
      <trkpt lat="50.51982" lon="1.59294">
        <ele>10</ele>
        <time>2021-08-10T17:24:43.999Z</time>
      </trkpt>
      <trkpt lat="50.51987" lon="1.59301">
        <ele>10</ele>
        <time>2021-08-10T17:24:48.999Z</time>
      </trkpt>
      <trkpt lat="50.51991" lon="1.5931">
        <ele>10</ele>
        <time>2021-08-10T17:24:53.999Z</time>
      </trkpt>
      <trkpt lat="50.51996" lon="1.59314">
        <ele>10</ele>
        <time>2021-08-10T17:24:58.999Z</time>
      </trkpt>
      <trkpt lat="50.52002" lon="1.59313">
        <ele>10</ele>
        <time>2021-08-10T17:25:03.999Z</time>
      </trkpt>
      <trkpt lat="50.52008" lon="1.5931">
        <ele>10</ele>
        <time>2021-08-10T17:25:08.999Z</time>
      </trkpt>
      <trkpt lat="50.52014" lon="1.59306">
        <ele>10</ele>
        <time>2021-08-10T17:25:13.999Z</time>
      </trkpt>
      <trkpt lat="50.5202" lon="1.59301">
        <ele>9</ele>
        <time>2021-08-10T17:25:18.999Z</time>
      </trkpt>
      <trkpt lat="50.52024" lon="1.59298">
        <ele>9</ele>
        <time>2021-08-10T17:25:22.999Z</time>
      </trkpt>
      <trkpt lat="50.52029" lon="1.59293">
        <ele>9</ele>
        <time>2021-08-10T17:25:27.999Z</time>
      </trkpt>
      <trkpt lat="50.52033" lon="1.59289">
        <ele>10</ele>
        <time>2021-08-10T17:25:31.999Z</time>
      </trkpt>
      <trkpt lat="50.52039" lon="1.59283">
        <ele>10</ele>
        <time>2021-08-10T17:25:36.999Z</time>
      </trkpt>
      <trkpt lat="50.52043" lon="1.5928">
        <ele>8</ele>
        <time>2021-08-10T17:25:40.999Z</time>
      </trkpt>
      <trkpt lat="50.52049" lon="1.59276">
        <ele>8</ele>
        <time>2021-08-10T17:25:45.999Z</time>
      </trkpt>
      <trkpt lat="50.52053" lon="1.59273">
        <ele>8</ele>
        <time>2021-08-10T17:25:49.999Z</time>
      </trkpt>
      <trkpt lat="50.52059" lon="1.59272">
        <ele>8</ele>
        <time>2021-08-10T17:25:54.999Z</time>
      </trkpt>
      <trkpt lat="50.52063" lon="1.59272">
        <ele>8</ele>
        <time>2021-08-10T17:25:58.999Z</time>
      </trkpt>
      <trkpt lat="50.52067" lon="1.59278">
        <ele>8</ele>
        <time>2021-08-10T17:26:02.999Z</time>
      </trkpt>
      <trkpt lat="50.52069" lon="1.59286">
        <ele>8</ele>
        <time>2021-08-10T17:26:07.999Z</time>
      </trkpt>
      <trkpt lat="50.52073" lon="1.59296">
        <ele>8</ele>
        <time>2021-08-10T17:26:12.999Z</time>
      </trkpt>
      <trkpt lat="50.52077" lon="1.59301">
        <ele>8</ele>
        <time>2021-08-10T17:26:17.999Z</time>
      </trkpt>
      <trkpt lat="50.52083" lon="1.59297">
        <ele>8</ele>
        <time>2021-08-10T17:26:22.999Z</time>
      </trkpt>
      <trkpt lat="50.52088" lon="1.59293">
        <ele>8</ele>
        <time>2021-08-10T17:26:26.999Z</time>
      </trkpt>
      <trkpt lat="50.52092" lon="1.59289">
        <ele>7</ele>
        <time>2021-08-10T17:26:30.999Z</time>
      </trkpt>
      <trkpt lat="50.52097" lon="1.59284">
        <ele>8</ele>
        <time>2021-08-10T17:26:35.999Z</time>
      </trkpt>
      <trkpt lat="50.521" lon="1.59281">
        <ele>8</ele>
        <time>2021-08-10T17:26:48.999Z</time>
      </trkpt>
      <trkpt lat="50.521" lon="1.59281">
        <ele>8</ele>
        <time>2021-08-10T17:26:53.999Z</time>
      </trkpt>
      <trkpt lat="50.52097" lon="1.59284">
        <ele>8</ele>
        <time>2021-08-10T17:26:58.999Z</time>
      </trkpt>
      <trkpt lat="50.52095" lon="1.59289">
        <ele>7</ele>
        <time>2021-08-10T17:27:02.999Z</time>
      </trkpt>
      <trkpt lat="50.52091" lon="1.59291">
        <ele>7</ele>
        <time>2021-08-10T17:27:07.999Z</time>
      </trkpt>
      <trkpt lat="50.52094" lon="1.59287">
        <ele>7</ele>
        <time>2021-08-10T17:30:32.999Z</time>
      </trkpt>
      <trkpt lat="50.52089" lon="1.59279">
        <ele>7</ele>
        <time>2021-08-10T17:30:36.999Z</time>
      </trkpt>
      <trkpt lat="50.52086" lon="1.59271">
        <ele>7</ele>
        <time>2021-08-10T17:30:40.999Z</time>
      </trkpt>
      <trkpt lat="50.52085" lon="1.59268">
        <ele>7</ele>
        <time>2021-08-10T17:30:45.999Z</time>
      </trkpt>
      <trkpt lat="50.52085" lon="1.59268">
        <ele>7</ele>
        <time>2021-08-10T17:30:49.999Z</time>
      </trkpt>
      <trkpt lat="50.52088" lon="1.59273">
        <ele>7</ele>
        <time>2021-08-10T18:53:48.999Z</time>
      </trkpt>
      <trkpt lat="50.52084" lon="1.59278">
        <ele>7</ele>
        <time>2021-08-10T18:53:52.999Z</time>
      </trkpt>
      <trkpt lat="50.52088" lon="1.59277">
        <ele>7</ele>
        <time>2021-08-10T18:53:57.999Z</time>
      </trkpt>
      <trkpt lat="50.52091" lon="1.59277">
        <ele>7</ele>
        <time>2021-08-10T18:54:02.999Z</time>
      </trkpt>
      <trkpt lat="50.52094" lon="1.59277">
        <ele>7</ele>
        <time>2021-08-10T18:54:07.999Z</time>
      </trkpt>
      <trkpt lat="50.52106" lon="1.59281">
        <ele>8</ele>
        <time>2021-08-10T18:54:59.999Z</time>
      </trkpt>
      <trkpt lat="50.5211" lon="1.5928">
        <ele>8</ele>
        <time>2021-08-10T18:55:03.999Z</time>
      </trkpt>
      <trkpt lat="50.52115" lon="1.59275">
        <ele>8</ele>
        <time>2021-08-10T18:55:08.999Z</time>
      </trkpt>
      <trkpt lat="50.52121" lon="1.59274">
        <ele>8</ele>
        <time>2021-08-10T18:55:13.999Z</time>
      </trkpt>
      <trkpt lat="50.52124" lon="1.59274">
        <ele>8</ele>
        <time>2021-08-10T18:55:17.999Z</time>
      </trkpt>
      <trkpt lat="50.52127" lon="1.59274">
        <ele>9</ele>
        <time>2021-08-10T18:55:21.999Z</time>
      </trkpt>
      <trkpt lat="50.52129" lon="1.59272">
        <ele>9</ele>
        <time>2021-08-10T18:55:26.999Z</time>
      </trkpt>
      <trkpt lat="50.52133" lon="1.59271">
        <ele>9</ele>
        <time>2021-08-10T18:55:30.999Z</time>
      </trkpt>
      <trkpt lat="50.52138" lon="1.59269">
        <ele>9</ele>
        <time>2021-08-10T18:55:35.999Z</time>
      </trkpt>
      <trkpt lat="50.52135" lon="1.59261">
        <ele>10</ele>
        <time>2021-08-10T18:55:54.999Z</time>
      </trkpt>
      <trkpt lat="50.52136" lon="1.59254">
        <ele>10</ele>
        <time>2021-08-10T18:55:59.999Z</time>
      </trkpt>
      <trkpt lat="50.52136" lon="1.59254">
        <ele>10</ele>
        <time>2021-08-10T18:56:03.999Z</time>
      </trkpt>
      <trkpt lat="50.52137" lon="1.59253">
        <ele>10</ele>
        <time>2021-08-10T18:56:08.999Z</time>
      </trkpt>
      <trkpt lat="50.52133" lon="1.59253">
        <ele>10</ele>
        <time>2021-08-10T18:56:13.999Z</time>
      </trkpt>
      <trkpt lat="50.52133" lon="1.59253">
        <ele>10</ele>
        <time>2021-08-10T18:56:18.999Z</time>
      </trkpt>
      <trkpt lat="50.52134" lon="1.59252">
        <ele>10</ele>
        <time>2021-08-10T18:56:22.999Z</time>
      </trkpt>
      <trkpt lat="50.52139" lon="1.59248">
        <ele>10</ele>
        <time>2021-08-10T18:56:26.999Z</time>
      </trkpt>
      <trkpt lat="50.52144" lon="1.59246">
        <ele>10</ele>
        <time>2021-08-10T18:56:31.171Z</time>
      </trkpt>
      <trkpt lat="50.52152" lon="1.59245">
        <ele>10</ele>
        <time>2021-08-10T18:56:35.999Z</time>
      </trkpt>
      <trkpt lat="50.52158" lon="1.59243">
        <ele>10</ele>
        <time>2021-08-10T18:56:40.999Z</time>
      </trkpt>
      <trkpt lat="50.52164" lon="1.59236">
        <ele>11</ele>
        <time>2021-08-10T18:56:45.999Z</time>
      </trkpt>
      <trkpt lat="50.52168" lon="1.59229">
        <ele>11</ele>
        <time>2021-08-10T18:56:49.999Z</time>
      </trkpt>
      <trkpt lat="50.52173" lon="1.59225">
        <ele>11</ele>
        <time>2021-08-10T18:56:54.999Z</time>
      </trkpt>
      <trkpt lat="50.52177" lon="1.59217">
        <ele>11</ele>
        <time>2021-08-10T18:56:59.999Z</time>
      </trkpt>
      <trkpt lat="50.52182" lon="1.59208">
        <ele>12</ele>
        <time>2021-08-10T18:57:04.999Z</time>
      </trkpt>
      <trkpt lat="50.52184" lon="1.59201">
        <ele>12</ele>
        <time>2021-08-10T18:57:08.999Z</time>
      </trkpt>
      <trkpt lat="50.52186" lon="1.59194">
        <ele>12</ele>
        <time>2021-08-10T18:57:12.999Z</time>
      </trkpt>
      <trkpt lat="50.52188" lon="1.59188">
        <ele>12</ele>
        <time>2021-08-10T18:57:16.999Z</time>
      </trkpt>
      <trkpt lat="50.52193" lon="1.59183">
        <ele>12</ele>
        <time>2021-08-10T18:57:21.999Z</time>
      </trkpt>
      <trkpt lat="50.52198" lon="1.59179">
        <ele>15</ele>
        <time>2021-08-10T18:57:26.999Z</time>
      </trkpt>
      <trkpt lat="50.52198" lon="1.59179">
        <ele>15</ele>
        <time>2021-08-10T18:57:31.999Z</time>
      </trkpt>
      <trkpt lat="50.52201" lon="1.59175">
        <ele>15</ele>
        <time>2021-08-10T18:57:35.999Z</time>
      </trkpt>
      <trkpt lat="50.52205" lon="1.59168">
        <ele>15</ele>
        <time>2021-08-10T18:57:40.999Z</time>
      </trkpt>
      <trkpt lat="50.5221" lon="1.59163">
        <ele>14</ele>
        <time>2021-08-10T18:57:45.999Z</time>
      </trkpt>
      <trkpt lat="50.52213" lon="1.59159">
        <ele>14</ele>
        <time>2021-08-10T18:57:49.999Z</time>
      </trkpt>
      <trkpt lat="50.52214" lon="1.59154">
        <ele>14</ele>
        <time>2021-08-10T18:57:53.999Z</time>
      </trkpt>
      <trkpt lat="50.52217" lon="1.59147">
        <ele>13</ele>
        <time>2021-08-10T18:57:58.999Z</time>
      </trkpt>
      <trkpt lat="50.52218" lon="1.59141">
        <ele>13</ele>
        <time>2021-08-10T18:58:03.999Z</time>
      </trkpt>
      <trkpt lat="50.52217" lon="1.59134">
        <ele>13</ele>
        <time>2021-08-10T18:58:07.999Z</time>
      </trkpt>
      <trkpt lat="50.52216" lon="1.59125">
        <ele>13</ele>
        <time>2021-08-10T18:58:12.999Z</time>
      </trkpt>
      <trkpt lat="50.52216" lon="1.59118">
        <ele>14</ele>
        <time>2021-08-10T18:58:16.999Z</time>
      </trkpt>
      <trkpt lat="50.52214" lon="1.59109">
        <ele>14</ele>
        <time>2021-08-10T18:58:20.999Z</time>
      </trkpt>
      <trkpt lat="50.52215" lon="1.59098">
        <ele>14</ele>
        <time>2021-08-10T18:58:25.999Z</time>
      </trkpt>
      <trkpt lat="50.52216" lon="1.59089">
        <ele>13</ele>
        <time>2021-08-10T18:58:31.165Z</time>
      </trkpt>
      <trkpt lat="50.5221" lon="1.59082">
        <ele>13</ele>
        <time>2021-08-10T18:58:35.999Z</time>
      </trkpt>
      <trkpt lat="50.52215" lon="1.59081">
        <ele>13</ele>
        <time>2021-08-10T18:58:40.999Z</time>
      </trkpt>
      <trkpt lat="50.52218" lon="1.59074">
        <ele>13</ele>
        <time>2021-08-10T18:58:45.999Z</time>
      </trkpt>
      <trkpt lat="50.52219" lon="1.59073">
        <ele>13</ele>
        <time>2021-08-10T18:58:49.999Z</time>
      </trkpt>
      <trkpt lat="50.52222" lon="1.59067">
        <ele>13</ele>
        <time>2021-08-10T18:58:54.999Z</time>
      </trkpt>
      <trkpt lat="50.52224" lon="1.59067">
        <ele>13</ele>
        <time>2021-08-10T18:58:58.999Z</time>
      </trkpt>
      <trkpt lat="50.52226" lon="1.59057">
        <ele>13</ele>
        <time>2021-08-10T18:59:03.999Z</time>
      </trkpt>
      <trkpt lat="50.52229" lon="1.59048">
        <ele>13</ele>
        <time>2021-08-10T18:59:08.999Z</time>
      </trkpt>
      <trkpt lat="50.52233" lon="1.59041">
        <ele>12</ele>
        <time>2021-08-10T18:59:13.999Z</time>
      </trkpt>
      <trkpt lat="50.52238" lon="1.59038">
        <ele>10</ele>
        <time>2021-08-10T18:59:18.999Z</time>
      </trkpt>
      <trkpt lat="50.52241" lon="1.59036">
        <ele>10</ele>
        <time>2021-08-10T18:59:22.999Z</time>
      </trkpt>
      <trkpt lat="50.52245" lon="1.5904">
        <ele>10</ele>
        <time>2021-08-10T18:59:26.999Z</time>
      </trkpt>
      <trkpt lat="50.52248" lon="1.59044">
        <ele>9</ele>
        <time>2021-08-10T18:59:30.999Z</time>
      </trkpt>
      <trkpt lat="50.52252" lon="1.59049">
        <ele>9</ele>
        <time>2021-08-10T18:59:35.999Z</time>
      </trkpt>
      <trkpt lat="50.52256" lon="1.59053">
        <ele>9</ele>
        <time>2021-08-10T18:59:40.999Z</time>
      </trkpt>
      <trkpt lat="50.52259" lon="1.59056">
        <ele>9</ele>
        <time>2021-08-10T18:59:44.999Z</time>
      </trkpt>
      <trkpt lat="50.52264" lon="1.59058">
        <ele>8</ele>
        <time>2021-08-10T18:59:48.999Z</time>
      </trkpt>
      <trkpt lat="50.52275" lon="1.59062">
        <ele>8</ele>
        <time>2021-08-10T18:59:53.999Z</time>
      </trkpt>
      <trkpt lat="50.5228" lon="1.59064">
        <ele>8</ele>
        <time>2021-08-10T18:59:57.999Z</time>
      </trkpt>
      <trkpt lat="50.52287" lon="1.59067">
        <ele>8</ele>
        <time>2021-08-10T19:00:02.999Z</time>
      </trkpt>
      <trkpt lat="50.52293" lon="1.59069">
        <ele>10</ele>
        <time>2021-08-10T19:00:07.999Z</time>
      </trkpt>
      <trkpt lat="50.52299" lon="1.59071">
        <ele>10</ele>
        <time>2021-08-10T19:00:12.999Z</time>
      </trkpt>
      <trkpt lat="50.52305" lon="1.59072">
        <ele>10</ele>
        <time>2021-08-10T19:00:16.999Z</time>
      </trkpt>
      <trkpt lat="50.5231" lon="1.59074">
        <ele>10</ele>
        <time>2021-08-10T19:00:21.999Z</time>
      </trkpt>
      <trkpt lat="50.52315" lon="1.59076">
        <ele>10</ele>
        <time>2021-08-10T19:00:26.999Z</time>
      </trkpt>
      <trkpt lat="50.5232" lon="1.59076">
        <ele>10</ele>
        <time>2021-08-10T19:00:31.124Z</time>
      </trkpt>
      <trkpt lat="50.52325" lon="1.59077">
        <ele>10</ele>
        <time>2021-08-10T19:00:35.999Z</time>
      </trkpt>
      <trkpt lat="50.52331" lon="1.5908">
        <ele>10</ele>
        <time>2021-08-10T19:00:40.999Z</time>
      </trkpt>
      <trkpt lat="50.52337" lon="1.59081">
        <ele>10</ele>
        <time>2021-08-10T19:00:44.999Z</time>
      </trkpt>
      <trkpt lat="50.52338" lon="1.59089">
        <ele>10</ele>
        <time>2021-08-10T19:00:49.999Z</time>
      </trkpt>
      <trkpt lat="50.52338" lon="1.59098">
        <ele>12</ele>
        <time>2021-08-10T19:00:54.999Z</time>
      </trkpt>
      <trkpt lat="50.52338" lon="1.59105">
        <ele>12</ele>
        <time>2021-08-10T19:00:58.999Z</time>
      </trkpt>
      <trkpt lat="50.52338" lon="1.59114">
        <ele>12</ele>
        <time>2021-08-10T19:01:03.999Z</time>
      </trkpt>
      <trkpt lat="50.52338" lon="1.5912">
        <ele>12</ele>
        <time>2021-08-10T19:01:08.999Z</time>
      </trkpt>
      <trkpt lat="50.52338" lon="1.59125">
        <ele>12</ele>
        <time>2021-08-10T19:01:13.999Z</time>
      </trkpt>
      <trkpt lat="50.52338" lon="1.59135">
        <ele>12</ele>
        <time>2021-08-10T19:01:22.999Z</time>
      </trkpt>
      <trkpt lat="50.52338" lon="1.59135">
        <ele>12</ele>
        <time>2021-08-10T19:01:26.999Z</time>
      </trkpt>
      <trkpt lat="50.5234" lon="1.59129">
        <ele>12</ele>
        <time>2021-08-10T19:01:31.999Z</time>
      </trkpt>
      <trkpt lat="50.52341" lon="1.59122">
        <ele>12</ele>
        <time>2021-08-10T19:01:35.999Z</time>
      </trkpt>
      <trkpt lat="50.52342" lon="1.59112">
        <ele>12</ele>
        <time>2021-08-10T19:01:40.999Z</time>
      </trkpt>
      <trkpt lat="50.52343" lon="1.59103">
        <ele>12</ele>
        <time>2021-08-10T19:01:45.999Z</time>
      </trkpt>
      <trkpt lat="50.52344" lon="1.59094">
        <ele>10</ele>
        <time>2021-08-10T19:01:50.999Z</time>
      </trkpt>
      <trkpt lat="50.52344" lon="1.59087">
        <ele>10</ele>
        <time>2021-08-10T19:01:54.999Z</time>
      </trkpt>
      <trkpt lat="50.52345" lon="1.59079">
        <ele>10</ele>
        <time>2021-08-10T19:01:59.999Z</time>
      </trkpt>
      <trkpt lat="50.52345" lon="1.59069">
        <ele>10</ele>
        <time>2021-08-10T19:02:04.999Z</time>
      </trkpt>
      <trkpt lat="50.52346" lon="1.59061">
        <ele>10</ele>
        <time>2021-08-10T19:02:08.999Z</time>
      </trkpt>
      <trkpt lat="50.52339" lon="1.5906">
        <ele>10</ele>
        <time>2021-08-10T19:02:13.999Z</time>
      </trkpt>
      <trkpt lat="50.52334" lon="1.59063">
        <ele>10</ele>
        <time>2021-08-10T19:02:17.999Z</time>
      </trkpt>
      <trkpt lat="50.52327" lon="1.59065">
        <ele>10</ele>
        <time>2021-08-10T19:02:22.999Z</time>
      </trkpt>
      <trkpt lat="50.52322" lon="1.59063">
        <ele>10</ele>
        <time>2021-08-10T19:02:26.999Z</time>
      </trkpt>
      <trkpt lat="50.52315" lon="1.59063">
        <ele>10</ele>
        <time>2021-08-10T19:02:31.999Z</time>
      </trkpt>
      <trkpt lat="50.52309" lon="1.59064">
        <ele>10</ele>
        <time>2021-08-10T19:02:36.999Z</time>
      </trkpt>
      <trkpt lat="50.52302" lon="1.59062">
        <ele>10</ele>
        <time>2021-08-10T19:02:41.999Z</time>
      </trkpt>
      <trkpt lat="50.52296" lon="1.59059">
        <ele>10</ele>
        <time>2021-08-10T19:02:46.999Z</time>
      </trkpt>
      <trkpt lat="50.52291" lon="1.59057">
        <ele>8</ele>
        <time>2021-08-10T19:02:51.999Z</time>
      </trkpt>
      <trkpt lat="50.52285" lon="1.59053">
        <ele>8</ele>
        <time>2021-08-10T19:02:56.999Z</time>
      </trkpt>
      <trkpt lat="50.52271" lon="1.59038">
        <ele>9</ele>
        <time>2021-08-10T19:03:20.999Z</time>
      </trkpt>
      <trkpt lat="50.52267" lon="1.59034">
        <ele>9</ele>
        <time>2021-08-10T19:03:25.999Z</time>
      </trkpt>
      <trkpt lat="50.52263" lon="1.59031">
        <ele>10</ele>
        <time>2021-08-10T19:03:29.999Z</time>
      </trkpt>
      <trkpt lat="50.52262" lon="1.59024">
        <ele>10</ele>
        <time>2021-08-10T19:03:33.999Z</time>
      </trkpt>
      <trkpt lat="50.52265" lon="1.59017">
        <ele>9</ele>
        <time>2021-08-10T19:03:38.999Z</time>
      </trkpt>
      <trkpt lat="50.52266" lon="1.59011">
        <ele>8</ele>
        <time>2021-08-10T19:03:42.999Z</time>
      </trkpt>
      <trkpt lat="50.52268" lon="1.59">
        <ele>8</ele>
        <time>2021-08-10T19:03:47.999Z</time>
      </trkpt>
      <trkpt lat="50.52267" lon="1.58988">
        <ele>8</ele>
        <time>2021-08-10T19:03:52.999Z</time>
      </trkpt>
      <trkpt lat="50.52267" lon="1.58979">
        <ele>10</ele>
        <time>2021-08-10T19:03:56.999Z</time>
      </trkpt>
      <trkpt lat="50.52267" lon="1.58969">
        <ele>10</ele>
        <time>2021-08-10T19:04:01.999Z</time>
      </trkpt>
      <trkpt lat="50.52265" lon="1.58963">
        <ele>10</ele>
        <time>2021-08-10T19:04:05.999Z</time>
      </trkpt>
      <trkpt lat="50.52262" lon="1.58954">
        <ele>10</ele>
        <time>2021-08-10T19:04:10.999Z</time>
      </trkpt>
      <trkpt lat="50.52259" lon="1.58947">
        <ele>10</ele>
        <time>2021-08-10T19:04:15.999Z</time>
      </trkpt>
      <trkpt lat="50.52256" lon="1.58939">
        <ele>10</ele>
        <time>2021-08-10T19:04:20.999Z</time>
      </trkpt>
      <trkpt lat="50.52252" lon="1.58939">
        <ele>10</ele>
        <time>2021-08-10T19:04:25.999Z</time>
      </trkpt>
      <trkpt lat="50.5225" lon="1.58935">
        <ele>10</ele>
        <time>2021-08-10T19:04:30.999Z</time>
      </trkpt>
      <trkpt lat="50.52247" lon="1.58938">
        <ele>10</ele>
        <time>2021-08-10T19:04:35.999Z</time>
      </trkpt>
      <trkpt lat="50.52248" lon="1.58935">
        <ele>10</ele>
        <time>2021-08-10T19:04:40.999Z</time>
      </trkpt>
      <trkpt lat="50.52247" lon="1.58935">
        <ele>10</ele>
        <time>2021-08-10T19:04:44.999Z</time>
      </trkpt>
      <trkpt lat="50.52248" lon="1.58919">
        <ele>11</ele>
        <time>2021-08-10T19:04:49.999Z</time>
      </trkpt>
      <trkpt lat="50.52248" lon="1.58907">
        <ele>11</ele>
        <time>2021-08-10T19:04:54.999Z</time>
      </trkpt>
      <trkpt lat="50.5225" lon="1.58896">
        <ele>12</ele>
        <time>2021-08-10T19:04:59.999Z</time>
      </trkpt>
      <trkpt lat="50.52253" lon="1.58894">
        <ele>12</ele>
        <time>2021-08-10T19:05:03.999Z</time>
      </trkpt>
      <trkpt lat="50.52258" lon="1.58887">
        <ele>12</ele>
        <time>2021-08-10T19:05:08.999Z</time>
      </trkpt>
      <trkpt lat="50.52261" lon="1.58878">
        <ele>12</ele>
        <time>2021-08-10T19:05:12.999Z</time>
      </trkpt>
      <trkpt lat="50.5226" lon="1.58875">
        <ele>12</ele>
        <time>2021-08-10T19:05:16.999Z</time>
      </trkpt>
      <trkpt lat="50.5226" lon="1.58868">
        <ele>12</ele>
        <time>2021-08-10T19:05:21.108Z</time>
      </trkpt>
      <trkpt lat="50.52263" lon="1.5886">
        <ele>12</ele>
        <time>2021-08-10T19:05:25.999Z</time>
      </trkpt>
      <trkpt lat="50.52267" lon="1.58851">
        <ele>12</ele>
        <time>2021-08-10T19:05:30.999Z</time>
      </trkpt>
      <trkpt lat="50.52271" lon="1.58843">
        <ele>12</ele>
        <time>2021-08-10T19:05:35.999Z</time>
      </trkpt>
      <trkpt lat="50.52275" lon="1.58836">
        <ele>12</ele>
        <time>2021-08-10T19:05:40.999Z</time>
      </trkpt>
      <trkpt lat="50.52278" lon="1.5883">
        <ele>12</ele>
        <time>2021-08-10T19:05:44.999Z</time>
      </trkpt>
      <trkpt lat="50.52281" lon="1.58823">
        <ele>12</ele>
        <time>2021-08-10T19:05:49.999Z</time>
      </trkpt>
      <trkpt lat="50.52284" lon="1.58815">
        <ele>12</ele>
        <time>2021-08-10T19:05:54.999Z</time>
      </trkpt>
      <trkpt lat="50.52285" lon="1.58809">
        <ele>12</ele>
        <time>2021-08-10T19:05:58.999Z</time>
      </trkpt>
      <trkpt lat="50.52288" lon="1.58802">
        <ele>12</ele>
        <time>2021-08-10T19:06:02.999Z</time>
      </trkpt>
      <trkpt lat="50.52291" lon="1.58795">
        <ele>12</ele>
        <time>2021-08-10T19:06:07.999Z</time>
      </trkpt>
      <trkpt lat="50.52295" lon="1.58787">
        <ele>12</ele>
        <time>2021-08-10T19:06:12.999Z</time>
      </trkpt>
      <trkpt lat="50.52297" lon="1.58778">
        <ele>12</ele>
        <time>2021-08-10T19:06:17.999Z</time>
      </trkpt>
      <trkpt lat="50.52296" lon="1.58771">
        <ele>12</ele>
        <time>2021-08-10T19:06:22.999Z</time>
      </trkpt>
      <trkpt lat="50.52297" lon="1.58763">
        <ele>13</ele>
        <time>2021-08-10T19:06:27.999Z</time>
      </trkpt>
      <trkpt lat="50.52301" lon="1.58757">
        <ele>13</ele>
        <time>2021-08-10T19:06:31.999Z</time>
      </trkpt>
      <trkpt lat="50.52304" lon="1.58749">
        <ele>13</ele>
        <time>2021-08-10T19:06:36.999Z</time>
      </trkpt>
      <trkpt lat="50.52306" lon="1.58742">
        <ele>13</ele>
        <time>2021-08-10T19:06:41.999Z</time>
      </trkpt>
      <trkpt lat="50.52309" lon="1.58737">
        <ele>13</ele>
        <time>2021-08-10T19:06:45.999Z</time>
      </trkpt>
      <trkpt lat="50.52312" lon="1.58731">
        <ele>13</ele>
        <time>2021-08-10T19:06:50.999Z</time>
      </trkpt>
      <trkpt lat="50.52314" lon="1.58721">
        <ele>13</ele>
        <time>2021-08-10T19:06:55.999Z</time>
      </trkpt>
      <trkpt lat="50.52317" lon="1.58712">
        <ele>13</ele>
        <time>2021-08-10T19:07:00.999Z</time>
      </trkpt>
      <trkpt lat="50.52321" lon="1.58704">
        <ele>14</ele>
        <time>2021-08-10T19:07:05.999Z</time>
      </trkpt>
      <trkpt lat="50.52322" lon="1.58699">
        <ele>14</ele>
        <time>2021-08-10T19:07:09.999Z</time>
      </trkpt>
      <trkpt lat="50.52324" lon="1.58689">
        <ele>14</ele>
        <time>2021-08-10T19:07:14.999Z</time>
      </trkpt>
      <trkpt lat="50.52327" lon="1.58681">
        <ele>14</ele>
        <time>2021-08-10T19:07:19.999Z</time>
      </trkpt>
      <trkpt lat="50.5233" lon="1.58673">
        <ele>14</ele>
        <time>2021-08-10T19:07:23.999Z</time>
      </trkpt>
      <trkpt lat="50.52333" lon="1.58664">
        <ele>14</ele>
        <time>2021-08-10T19:07:28.999Z</time>
      </trkpt>
      <trkpt lat="50.52336" lon="1.58657">
        <ele>14</ele>
        <time>2021-08-10T19:07:33.999Z</time>
      </trkpt>
      <trkpt lat="50.52339" lon="1.58657">
        <ele>14</ele>
        <time>2021-08-10T19:07:37.999Z</time>
      </trkpt>
      <trkpt lat="50.52344" lon="1.58656">
        <ele>14</ele>
        <time>2021-08-10T19:07:42.999Z</time>
      </trkpt>
      <trkpt lat="50.52344" lon="1.5865">
        <ele>14</ele>
        <time>2021-08-10T19:07:46.999Z</time>
      </trkpt>
      <trkpt lat="50.52346" lon="1.58643">
        <ele>14</ele>
        <time>2021-08-10T19:07:51.999Z</time>
      </trkpt>
      <trkpt lat="50.52347" lon="1.58638">
        <ele>14</ele>
        <time>2021-08-10T19:07:55.999Z</time>
      </trkpt>
      <trkpt lat="50.5235" lon="1.58632">
        <ele>15</ele>
        <time>2021-08-10T19:08:00.999Z</time>
      </trkpt>
      <trkpt lat="50.52352" lon="1.58625">
        <ele>15</ele>
        <time>2021-08-10T19:08:04.999Z</time>
      </trkpt>
      <trkpt lat="50.5235" lon="1.58622">
        <ele>14</ele>
        <time>2021-08-10T19:08:08.999Z</time>
      </trkpt>
      <trkpt lat="50.52347" lon="1.58617">
        <ele>14</ele>
        <time>2021-08-10T19:08:13.999Z</time>
      </trkpt>
      <trkpt lat="50.52349" lon="1.58611">
        <ele>14</ele>
        <time>2021-08-10T19:08:17.999Z</time>
      </trkpt>
      <trkpt lat="50.52352" lon="1.58605">
        <ele>14</ele>
        <time>2021-08-10T19:08:22.999Z</time>
      </trkpt>
      <trkpt lat="50.52352" lon="1.58601">
        <ele>14</ele>
        <time>2021-08-10T19:08:26.999Z</time>
      </trkpt>
      <trkpt lat="50.52355" lon="1.58595">
        <ele>15</ele>
        <time>2021-08-10T19:08:31.999Z</time>
      </trkpt>
      <trkpt lat="50.52359" lon="1.58589">
        <ele>15</ele>
        <time>2021-08-10T19:08:36.999Z</time>
      </trkpt>
      <trkpt lat="50.52362" lon="1.58582">
        <ele>15</ele>
        <time>2021-08-10T19:08:41.999Z</time>
      </trkpt>
      <trkpt lat="50.52367" lon="1.58582">
        <ele>15</ele>
        <time>2021-08-10T19:08:46.999Z</time>
      </trkpt>
      <trkpt lat="50.52371" lon="1.58571">
        <ele>15</ele>
        <time>2021-08-10T19:08:51.999Z</time>
      </trkpt>
      <trkpt lat="50.52376" lon="1.58561">
        <ele>15</ele>
        <time>2021-08-10T19:08:56.999Z</time>
      </trkpt>
      <trkpt lat="50.52377" lon="1.58557">
        <ele>15</ele>
        <time>2021-08-10T19:09:01.999Z</time>
      </trkpt>
      <trkpt lat="50.52381" lon="1.58546">
        <ele>15</ele>
        <time>2021-08-10T19:09:06.999Z</time>
      </trkpt>
      <trkpt lat="50.52381" lon="1.58536">
        <ele>15</ele>
        <time>2021-08-10T19:09:10.999Z</time>
      </trkpt>
      <trkpt lat="50.52386" lon="1.58525">
        <ele>15</ele>
        <time>2021-08-10T19:09:15.999Z</time>
      </trkpt>
      <trkpt lat="50.52391" lon="1.58518">
        <ele>15</ele>
        <time>2021-08-10T19:09:20.999Z</time>
      </trkpt>
      <trkpt lat="50.52395" lon="1.58512">
        <ele>15</ele>
        <time>2021-08-10T19:09:25.999Z</time>
      </trkpt>
      <trkpt lat="50.52398" lon="1.58506">
        <ele>15</ele>
        <time>2021-08-10T19:09:29.999Z</time>
      </trkpt>
      <trkpt lat="50.524" lon="1.58497">
        <ele>15</ele>
        <time>2021-08-10T19:09:34.999Z</time>
      </trkpt>
      <trkpt lat="50.52404" lon="1.5849">
        <ele>14</ele>
        <time>2021-08-10T19:09:39.999Z</time>
      </trkpt>
      <trkpt lat="50.52408" lon="1.58481">
        <ele>14</ele>
        <time>2021-08-10T19:09:44.999Z</time>
      </trkpt>
      <trkpt lat="50.5241" lon="1.5847">
        <ele>14</ele>
        <time>2021-08-10T19:09:48.999Z</time>
      </trkpt>
      <trkpt lat="50.52413" lon="1.58463">
        <ele>14</ele>
        <time>2021-08-10T19:09:52.999Z</time>
      </trkpt>
      <trkpt lat="50.52417" lon="1.58455">
        <ele>14</ele>
        <time>2021-08-10T19:09:57.999Z</time>
      </trkpt>
      <trkpt lat="50.52421" lon="1.58449">
        <ele>14</ele>
        <time>2021-08-10T19:10:01.999Z</time>
      </trkpt>
      <trkpt lat="50.52426" lon="1.58443">
        <ele>14</ele>
        <time>2021-08-10T19:10:06.999Z</time>
      </trkpt>
      <trkpt lat="50.52429" lon="1.58435">
        <ele>14</ele>
        <time>2021-08-10T19:10:11.999Z</time>
      </trkpt>
      <trkpt lat="50.52433" lon="1.5843">
        <ele>15</ele>
        <time>2021-08-10T19:10:15.999Z</time>
      </trkpt>
      <trkpt lat="50.52436" lon="1.58421">
        <ele>15</ele>
        <time>2021-08-10T19:10:20.999Z</time>
      </trkpt>
      <trkpt lat="50.52441" lon="1.58409">
        <ele>15</ele>
        <time>2021-08-10T19:10:25.999Z</time>
      </trkpt>
      <trkpt lat="50.52445" lon="1.58399">
        <ele>15</ele>
        <time>2021-08-10T19:10:30.999Z</time>
      </trkpt>
      <trkpt lat="50.52448" lon="1.5839">
        <ele>15</ele>
        <time>2021-08-10T19:10:35.999Z</time>
      </trkpt>
      <trkpt lat="50.5245" lon="1.58383">
        <ele>15</ele>
        <time>2021-08-10T19:10:39.999Z</time>
      </trkpt>
      <trkpt lat="50.52454" lon="1.58375">
        <ele>15</ele>
        <time>2021-08-10T19:10:44.999Z</time>
      </trkpt>
      <trkpt lat="50.52458" lon="1.58365">
        <ele>15</ele>
        <time>2021-08-10T19:10:49.999Z</time>
      </trkpt>
      <trkpt lat="50.52461" lon="1.58353">
        <ele>15</ele>
        <time>2021-08-10T19:10:54.999Z</time>
      </trkpt>
      <trkpt lat="50.52464" lon="1.58343">
        <ele>15</ele>
        <time>2021-08-10T19:10:59.999Z</time>
      </trkpt>
      <trkpt lat="50.52468" lon="1.58334">
        <ele>15</ele>
        <time>2021-08-10T19:11:04.999Z</time>
      </trkpt>
      <trkpt lat="50.52472" lon="1.5833">
        <ele>15</ele>
        <time>2021-08-10T19:11:08.999Z</time>
      </trkpt>
      <trkpt lat="50.52474" lon="1.58321">
        <ele>15</ele>
        <time>2021-08-10T19:11:13.185Z</time>
      </trkpt>
      <trkpt lat="50.52478" lon="1.58311">
        <ele>14</ele>
        <time>2021-08-10T19:11:17.999Z</time>
      </trkpt>
      <trkpt lat="50.52481" lon="1.58304">
        <ele>14</ele>
        <time>2021-08-10T19:11:21.999Z</time>
      </trkpt>
      <trkpt lat="50.52486" lon="1.58295">
        <ele>14</ele>
        <time>2021-08-10T19:11:26.999Z</time>
      </trkpt>
      <trkpt lat="50.52493" lon="1.58296">
        <ele>14</ele>
        <time>2021-08-10T19:11:31.999Z</time>
      </trkpt>
      <trkpt lat="50.52496" lon="1.58286">
        <ele>13</ele>
        <time>2021-08-10T19:11:36.999Z</time>
      </trkpt>
      <trkpt lat="50.52498" lon="1.58275">
        <ele>13</ele>
        <time>2021-08-10T19:11:41.999Z</time>
      </trkpt>
      <trkpt lat="50.52498" lon="1.58263">
        <ele>12</ele>
        <time>2021-08-10T19:11:46.999Z</time>
      </trkpt>
      <trkpt lat="50.52496" lon="1.58254">
        <ele>12</ele>
        <time>2021-08-10T19:11:50.999Z</time>
      </trkpt>
      <trkpt lat="50.52497" lon="1.58244">
        <ele>12</ele>
        <time>2021-08-10T19:11:55.999Z</time>
      </trkpt>
      <trkpt lat="50.52499" lon="1.58231">
        <ele>11</ele>
        <time>2021-08-10T19:12:00.999Z</time>
      </trkpt>
      <trkpt lat="50.52503" lon="1.58223">
        <ele>11</ele>
        <time>2021-08-10T19:12:05.999Z</time>
      </trkpt>
      <trkpt lat="50.52507" lon="1.58216">
        <ele>11</ele>
        <time>2021-08-10T19:12:10.999Z</time>
      </trkpt>
      <trkpt lat="50.52511" lon="1.5821">
        <ele>11</ele>
        <time>2021-08-10T19:12:14.999Z</time>
      </trkpt>
      <trkpt lat="50.5251" lon="1.58201">
        <ele>10</ele>
        <time>2021-08-10T19:12:19.999Z</time>
      </trkpt>
      <trkpt lat="50.52508" lon="1.58199">
        <ele>10</ele>
        <time>2021-08-10T19:12:23.999Z</time>
      </trkpt>
      <trkpt lat="50.52502" lon="1.58195">
        <ele>10</ele>
        <time>2021-08-10T19:14:05.999Z</time>
      </trkpt>
      <trkpt lat="50.52503" lon="1.58186">
        <ele>10</ele>
        <time>2021-08-10T19:14:09.999Z</time>
      </trkpt>
      <trkpt lat="50.525" lon="1.58177">
        <ele>8</ele>
        <time>2021-08-10T19:14:14.999Z</time>
      </trkpt>
      <trkpt lat="50.52496" lon="1.58173">
        <ele>8</ele>
        <time>2021-08-10T19:14:18.999Z</time>
      </trkpt>
      <trkpt lat="50.52491" lon="1.58166">
        <ele>8</ele>
        <time>2021-08-10T19:14:23.999Z</time>
      </trkpt>
      <trkpt lat="50.52489" lon="1.5816">
        <ele>8</ele>
        <time>2021-08-10T19:14:27.999Z</time>
      </trkpt>
      <trkpt lat="50.52488" lon="1.5815">
        <ele>8</ele>
        <time>2021-08-10T19:14:32.999Z</time>
      </trkpt>
      <trkpt lat="50.52485" lon="1.58142">
        <ele>9</ele>
        <time>2021-08-10T19:14:37.999Z</time>
      </trkpt>
      <trkpt lat="50.52481" lon="1.58134">
        <ele>9</ele>
        <time>2021-08-10T19:14:42.999Z</time>
      </trkpt>
      <trkpt lat="50.5248" lon="1.58127">
        <ele>9</ele>
        <time>2021-08-10T19:14:46.999Z</time>
      </trkpt>
      <trkpt lat="50.5248" lon="1.58117">
        <ele>7</ele>
        <time>2021-08-10T19:14:51.999Z</time>
      </trkpt>
      <trkpt lat="50.52478" lon="1.58108">
        <ele>7</ele>
        <time>2021-08-10T19:14:56.999Z</time>
      </trkpt>
      <trkpt lat="50.52475" lon="1.58101">
        <ele>7</ele>
        <time>2021-08-10T19:15:00.999Z</time>
      </trkpt>
      <trkpt lat="50.52468" lon="1.5809">
        <ele>6</ele>
        <time>2021-08-10T19:15:23.999Z</time>
      </trkpt>
      <trkpt lat="50.52465" lon="1.5809">
        <ele>6</ele>
        <time>2021-08-10T19:15:28.999Z</time>
      </trkpt>
      <trkpt lat="50.5246" lon="1.5809">
        <ele>6</ele>
        <time>2021-08-10T19:15:33.999Z</time>
      </trkpt>
      <trkpt lat="50.52456" lon="1.58086">
        <ele>6</ele>
        <time>2021-08-10T19:15:38.999Z</time>
      </trkpt>
      <trkpt lat="50.52452" lon="1.58084">
        <ele>6</ele>
        <time>2021-08-10T19:15:42.999Z</time>
      </trkpt>
      <trkpt lat="50.52447" lon="1.58082">
        <ele>6</ele>
        <time>2021-08-10T19:15:47.999Z</time>
      </trkpt>
      <trkpt lat="50.52441" lon="1.5808">
        <ele>6</ele>
        <time>2021-08-10T19:15:52.999Z</time>
      </trkpt>
      <trkpt lat="50.52437" lon="1.58078">
        <ele>6</ele>
        <time>2021-08-10T19:15:56.999Z</time>
      </trkpt>
      <trkpt lat="50.52432" lon="1.58075">
        <ele>6</ele>
        <time>2021-08-10T19:16:01.999Z</time>
      </trkpt>
      <trkpt lat="50.52432" lon="1.58065">
        <ele>5</ele>
        <time>2021-08-10T19:16:06.999Z</time>
      </trkpt>
      <trkpt lat="50.52434" lon="1.58056">
        <ele>5</ele>
        <time>2021-08-10T19:16:11.999Z</time>
      </trkpt>
      <trkpt lat="50.52436" lon="1.58046">
        <ele>5</ele>
        <time>2021-08-10T19:16:16.999Z</time>
      </trkpt>
      <trkpt lat="50.52436" lon="1.58038">
        <ele>4</ele>
        <time>2021-08-10T19:16:21.999Z</time>
      </trkpt>
      <trkpt lat="50.52438" lon="1.58032">
        <ele>4</ele>
        <time>2021-08-10T19:16:25.999Z</time>
      </trkpt>
      <trkpt lat="50.5244" lon="1.58022">
        <ele>4</ele>
        <time>2021-08-10T19:16:30.999Z</time>
      </trkpt>
      <trkpt lat="50.52443" lon="1.58017">
        <ele>4</ele>
        <time>2021-08-10T19:16:34.999Z</time>
      </trkpt>
      <trkpt lat="50.52444" lon="1.5801">
        <ele>3</ele>
        <time>2021-08-10T19:16:39.999Z</time>
      </trkpt>
      <trkpt lat="50.52444" lon="1.58008">
        <ele>3</ele>
        <time>2021-08-10T19:16:44.999Z</time>
      </trkpt>
      <trkpt lat="50.52445" lon="1.58002">
        <ele>3</ele>
        <time>2021-08-10T19:16:48.999Z</time>
      </trkpt>
      <trkpt lat="50.52447" lon="1.57994">
        <ele>3</ele>
        <time>2021-08-10T19:16:53.999Z</time>
      </trkpt>
      <trkpt lat="50.52448" lon="1.57989">
        <ele>3</ele>
        <time>2021-08-10T19:16:58.999Z</time>
      </trkpt>
      <trkpt lat="50.52448" lon="1.57982">
        <ele>3</ele>
        <time>2021-08-10T19:17:03.999Z</time>
      </trkpt>
      <trkpt lat="50.52449" lon="1.57975">
        <ele>3</ele>
        <time>2021-08-10T19:17:08.999Z</time>
      </trkpt>
      <trkpt lat="50.5245" lon="1.57969">
        <ele>3</ele>
        <time>2021-08-10T19:17:13.999Z</time>
      </trkpt>
      <trkpt lat="50.52451" lon="1.57963">
        <ele>3</ele>
        <time>2021-08-10T19:17:17.999Z</time>
      </trkpt>
      <trkpt lat="50.52442" lon="1.57949">
        <ele>2</ele>
        <time>2021-08-10T19:17:41.999Z</time>
      </trkpt>
      <trkpt lat="50.52437" lon="1.57952">
        <ele>2</ele>
        <time>2021-08-10T19:17:45.999Z</time>
      </trkpt>
      <trkpt lat="50.52431" lon="1.57949">
        <ele>2</ele>
        <time>2021-08-10T19:17:50.999Z</time>
      </trkpt>
      <trkpt lat="50.5243" lon="1.57948">
        <ele>2</ele>
        <time>2021-08-10T19:17:54.999Z</time>
      </trkpt>
      <trkpt lat="50.52427" lon="1.57949">
        <ele>2</ele>
        <time>2021-08-10T19:17:59.999Z</time>
      </trkpt>
      <trkpt lat="50.52422" lon="1.5795">
        <ele>2</ele>
        <time>2021-08-10T19:18:04.999Z</time>
      </trkpt>
      <trkpt lat="50.52418" lon="1.57955">
        <ele>2</ele>
        <time>2021-08-10T19:18:09.999Z</time>
      </trkpt>
      <trkpt lat="50.52416" lon="1.57958">
        <ele>2</ele>
        <time>2021-08-10T19:18:13.999Z</time>
      </trkpt>
      <trkpt lat="50.52415" lon="1.57962">
        <ele>3</ele>
        <time>2021-08-10T19:18:18.999Z</time>
      </trkpt>
      <trkpt lat="50.52415" lon="1.57964">
        <ele>3</ele>
        <time>2021-08-10T19:18:23.999Z</time>
      </trkpt>
      <trkpt lat="50.52414" lon="1.57961">
        <ele>3</ele>
        <time>2021-08-10T19:18:28.999Z</time>
      </trkpt>
      <trkpt lat="50.5241" lon="1.57959">
        <ele>3</ele>
        <time>2021-08-10T19:18:33.999Z</time>
      </trkpt>
      <trkpt lat="50.52404" lon="1.57959">
        <ele>3</ele>
        <time>2021-08-10T19:18:38.999Z</time>
      </trkpt>
      <trkpt lat="50.52399" lon="1.57955">
        <ele>4</ele>
        <time>2021-08-10T19:18:43.999Z</time>
      </trkpt>
      <trkpt lat="50.524" lon="1.5795">
        <ele>4</ele>
        <time>2021-08-10T19:18:48.999Z</time>
      </trkpt>
      <trkpt lat="50.52396" lon="1.57951">
        <ele>4</ele>
        <time>2021-08-10T19:18:53.999Z</time>
      </trkpt>
      <trkpt lat="50.52391" lon="1.57952">
        <ele>4</ele>
        <time>2021-08-10T19:18:57.999Z</time>
      </trkpt>
      <trkpt lat="50.52384" lon="1.57952">
        <ele>4</ele>
        <time>2021-08-10T19:19:02.999Z</time>
      </trkpt>
      <trkpt lat="50.52378" lon="1.57951">
        <ele>4</ele>
        <time>2021-08-10T19:19:07.999Z</time>
      </trkpt>
      <trkpt lat="50.52371" lon="1.57949">
        <ele>6</ele>
        <time>2021-08-10T19:19:12.999Z</time>
      </trkpt>
      <trkpt lat="50.52366" lon="1.57945">
        <ele>6</ele>
        <time>2021-08-10T19:19:17.999Z</time>
      </trkpt>
      <trkpt lat="50.5236" lon="1.57941">
        <ele>6</ele>
        <time>2021-08-10T19:19:22.999Z</time>
      </trkpt>
      <trkpt lat="50.52355" lon="1.57938">
        <ele>6</ele>
        <time>2021-08-10T19:19:27.999Z</time>
      </trkpt>
      <trkpt lat="50.5235" lon="1.57934">
        <ele>6</ele>
        <time>2021-08-10T19:19:32.999Z</time>
      </trkpt>
      <trkpt lat="50.52345" lon="1.57932">
        <ele>6</ele>
        <time>2021-08-10T19:19:37.999Z</time>
      </trkpt>
      <trkpt lat="50.52345" lon="1.5793">
        <ele>4</ele>
        <time>2021-08-10T19:19:42.999Z</time>
      </trkpt>
      <trkpt lat="50.52332" lon="1.57925">
        <ele>4</ele>
        <time>2021-08-10T19:20:23.999Z</time>
      </trkpt>
      <trkpt lat="50.52331" lon="1.57925">
        <ele>4</ele>
        <time>2021-08-10T19:20:28.999Z</time>
      </trkpt>
      <trkpt lat="50.52325" lon="1.57925">
        <ele>4</ele>
        <time>2021-08-10T19:20:33.999Z</time>
      </trkpt>
      <trkpt lat="50.52319" lon="1.57921">
        <ele>5</ele>
        <time>2021-08-10T19:20:38.999Z</time>
      </trkpt>
      <trkpt lat="50.52313" lon="1.5792">
        <ele>5</ele>
        <time>2021-08-10T19:20:43.999Z</time>
      </trkpt>
      <trkpt lat="50.52315" lon="1.57917">
        <ele>5</ele>
        <time>2021-08-10T19:20:52.999Z</time>
      </trkpt>
      <trkpt lat="50.52315" lon="1.57917">
        <ele>5</ele>
        <time>2021-08-10T19:20:56.999Z</time>
      </trkpt>
      <trkpt lat="50.52311" lon="1.57918">
        <ele>5</ele>
        <time>2021-08-10T19:21:01.999Z</time>
      </trkpt>
      <trkpt lat="50.52306" lon="1.57915">
        <ele>5</ele>
        <time>2021-08-10T19:21:06.999Z</time>
      </trkpt>
      <trkpt lat="50.52302" lon="1.57913">
        <ele>5</ele>
        <time>2021-08-10T19:21:10.999Z</time>
      </trkpt>
      <trkpt lat="50.52293" lon="1.57913">
        <ele>5</ele>
        <time>2021-08-10T19:21:43.999Z</time>
      </trkpt>
      <trkpt lat="50.5229" lon="1.57912">
        <ele>5</ele>
        <time>2021-08-10T19:21:47.999Z</time>
      </trkpt>
      <trkpt lat="50.52285" lon="1.57912">
        <ele>5</ele>
        <time>2021-08-10T19:21:51.999Z</time>
      </trkpt>
      <trkpt lat="50.5228" lon="1.57911">
        <ele>5</ele>
        <time>2021-08-10T19:21:56.999Z</time>
      </trkpt>
      <trkpt lat="50.52274" lon="1.57909">
        <ele>5</ele>
        <time>2021-08-10T19:22:01.999Z</time>
      </trkpt>
      <trkpt lat="50.52269" lon="1.57908">
        <ele>5</ele>
        <time>2021-08-10T19:22:05.999Z</time>
      </trkpt>
      <trkpt lat="50.52263" lon="1.57906">
        <ele>6</ele>
        <time>2021-08-10T19:22:10.999Z</time>
      </trkpt>
      <trkpt lat="50.52258" lon="1.57903">
        <ele>6</ele>
        <time>2021-08-10T19:22:14.999Z</time>
      </trkpt>
      <trkpt lat="50.52253" lon="1.579">
        <ele>5</ele>
        <time>2021-08-10T19:22:19.999Z</time>
      </trkpt>
      <trkpt lat="50.52252" lon="1.57896">
        <ele>5</ele>
        <time>2021-08-10T19:22:24.999Z</time>
      </trkpt>
      <trkpt lat="50.52252" lon="1.57894">
        <ele>5</ele>
        <time>2021-08-10T19:22:29.139Z</time>
      </trkpt>
      <trkpt lat="50.52247" lon="1.57894">
        <ele>5</ele>
        <time>2021-08-10T19:22:33.999Z</time>
      </trkpt>
      <trkpt lat="50.52242" lon="1.57892">
        <ele>5</ele>
        <time>2021-08-10T19:22:38.999Z</time>
      </trkpt>
      <trkpt lat="50.52236" lon="1.57892">
        <ele>6</ele>
        <time>2021-08-10T19:22:43.999Z</time>
      </trkpt>
      <trkpt lat="50.5223" lon="1.57892">
        <ele>6</ele>
        <time>2021-08-10T19:22:48.999Z</time>
      </trkpt>
      <trkpt lat="50.52225" lon="1.5789">
        <ele>6</ele>
        <time>2021-08-10T19:22:52.999Z</time>
      </trkpt>
      <trkpt lat="50.52219" lon="1.57889">
        <ele>6</ele>
        <time>2021-08-10T19:22:57.999Z</time>
      </trkpt>
      <trkpt lat="50.52213" lon="1.57889">
        <ele>6</ele>
        <time>2021-08-10T19:23:02.999Z</time>
      </trkpt>
      <trkpt lat="50.52207" lon="1.5789">
        <ele>6</ele>
        <time>2021-08-10T19:23:07.999Z</time>
      </trkpt>
      <trkpt lat="50.52201" lon="1.5789">
        <ele>6</ele>
        <time>2021-08-10T19:23:12.999Z</time>
      </trkpt>
      <trkpt lat="50.52195" lon="1.57889">
        <ele>6</ele>
        <time>2021-08-10T19:23:17.999Z</time>
      </trkpt>
      <trkpt lat="50.5219" lon="1.57887">
        <ele>6</ele>
        <time>2021-08-10T19:23:21.999Z</time>
      </trkpt>
      <trkpt lat="50.52184" lon="1.57886">
        <ele>6</ele>
        <time>2021-08-10T19:23:26.999Z</time>
      </trkpt>
      <trkpt lat="50.52179" lon="1.57885">
        <ele>6</ele>
        <time>2021-08-10T19:23:30.999Z</time>
      </trkpt>
      <trkpt lat="50.52174" lon="1.57883">
        <ele>6</ele>
        <time>2021-08-10T19:23:34.999Z</time>
      </trkpt>
      <trkpt lat="50.52169" lon="1.57882">
        <ele>6</ele>
        <time>2021-08-10T19:23:39.999Z</time>
      </trkpt>
      <trkpt lat="50.52164" lon="1.5788">
        <ele>6</ele>
        <time>2021-08-10T19:23:43.999Z</time>
      </trkpt>
      <trkpt lat="50.52159" lon="1.57879">
        <ele>6</ele>
        <time>2021-08-10T19:23:47.999Z</time>
      </trkpt>
      <trkpt lat="50.52155" lon="1.57878">
        <ele>6</ele>
        <time>2021-08-10T19:23:51.999Z</time>
      </trkpt>
      <trkpt lat="50.52149" lon="1.57877">
        <ele>9</ele>
        <time>2021-08-10T19:23:56.999Z</time>
      </trkpt>
      <trkpt lat="50.52143" lon="1.57875">
        <ele>9</ele>
        <time>2021-08-10T19:24:01.999Z</time>
      </trkpt>
      <trkpt lat="50.52137" lon="1.57874">
        <ele>3</ele>
        <time>2021-08-10T19:24:06.999Z</time>
      </trkpt>
      <trkpt lat="50.52133" lon="1.57873">
        <ele>3</ele>
        <time>2021-08-10T19:24:10.999Z</time>
      </trkpt>
      <trkpt lat="50.52126" lon="1.57874">
        <ele>3</ele>
        <time>2021-08-10T19:24:15.999Z</time>
      </trkpt>
      <trkpt lat="50.5212" lon="1.57873">
        <ele>3</ele>
        <time>2021-08-10T19:24:20.999Z</time>
      </trkpt>
      <trkpt lat="50.52114" lon="1.57872">
        <ele>3</ele>
        <time>2021-08-10T19:24:25.999Z</time>
      </trkpt>
      <trkpt lat="50.52108" lon="1.57871">
        <ele>3</ele>
        <time>2021-08-10T19:24:30.999Z</time>
      </trkpt>
      <trkpt lat="50.52101" lon="1.57872">
        <ele>3</ele>
        <time>2021-08-10T19:24:35.999Z</time>
      </trkpt>
      <trkpt lat="50.52096" lon="1.57871">
        <ele>4</ele>
        <time>2021-08-10T19:24:39.999Z</time>
      </trkpt>
      <trkpt lat="50.52089" lon="1.57871">
        <ele>4</ele>
        <time>2021-08-10T19:24:44.999Z</time>
      </trkpt>
      <trkpt lat="50.52084" lon="1.57871">
        <ele>4</ele>
        <time>2021-08-10T19:24:48.999Z</time>
      </trkpt>
      <trkpt lat="50.52078" lon="1.57869">
        <ele>4</ele>
        <time>2021-08-10T19:24:53.999Z</time>
      </trkpt>
      <trkpt lat="50.52073" lon="1.57868">
        <ele>4</ele>
        <time>2021-08-10T19:24:57.999Z</time>
      </trkpt>
      <trkpt lat="50.52066" lon="1.57867">
        <ele>4</ele>
        <time>2021-08-10T19:25:02.999Z</time>
      </trkpt>
      <trkpt lat="50.52061" lon="1.57866">
        <ele>4</ele>
        <time>2021-08-10T19:25:06.999Z</time>
      </trkpt>
      <trkpt lat="50.52056" lon="1.57865">
        <ele>4</ele>
        <time>2021-08-10T19:25:10.999Z</time>
      </trkpt>
      <trkpt lat="50.52051" lon="1.57863">
        <ele>4</ele>
        <time>2021-08-10T19:25:14.999Z</time>
      </trkpt>
      <trkpt lat="50.52046" lon="1.57863">
        <ele>4</ele>
        <time>2021-08-10T19:25:18.999Z</time>
      </trkpt>
      <trkpt lat="50.5204" lon="1.57862">
        <ele>4</ele>
        <time>2021-08-10T19:25:23.999Z</time>
      </trkpt>
      <trkpt lat="50.52035" lon="1.57861">
        <ele>4</ele>
        <time>2021-08-10T19:25:28.999Z</time>
      </trkpt>
      <trkpt lat="50.5203" lon="1.57859">
        <ele>4</ele>
        <time>2021-08-10T19:25:32.999Z</time>
      </trkpt>
      <trkpt lat="50.52025" lon="1.57857">
        <ele>4</ele>
        <time>2021-08-10T19:25:36.999Z</time>
      </trkpt>
      <trkpt lat="50.52019" lon="1.57856">
        <ele>4</ele>
        <time>2021-08-10T19:25:41.999Z</time>
      </trkpt>
      <trkpt lat="50.52013" lon="1.57853">
        <ele>4</ele>
        <time>2021-08-10T19:25:46.999Z</time>
      </trkpt>
      <trkpt lat="50.52008" lon="1.57852">
        <ele>4</ele>
        <time>2021-08-10T19:25:50.999Z</time>
      </trkpt>
      <trkpt lat="50.52002" lon="1.57852">
        <ele>4</ele>
        <time>2021-08-10T19:25:55.999Z</time>
      </trkpt>
      <trkpt lat="50.51996" lon="1.57851">
        <ele>4</ele>
        <time>2021-08-10T19:26:00.999Z</time>
      </trkpt>
      <trkpt lat="50.51989" lon="1.5785">
        <ele>4</ele>
        <time>2021-08-10T19:26:05.999Z</time>
      </trkpt>
      <trkpt lat="50.51983" lon="1.57849">
        <ele>4</ele>
        <time>2021-08-10T19:26:10.999Z</time>
      </trkpt>
      <trkpt lat="50.51978" lon="1.57848">
        <ele>4</ele>
        <time>2021-08-10T19:26:14.999Z</time>
      </trkpt>
      <trkpt lat="50.51972" lon="1.57846">
        <ele>5</ele>
        <time>2021-08-10T19:26:19.999Z</time>
      </trkpt>
      <trkpt lat="50.51967" lon="1.57847">
        <ele>5</ele>
        <time>2021-08-10T19:26:23.999Z</time>
      </trkpt>
      <trkpt lat="50.51963" lon="1.57846">
        <ele>5</ele>
        <time>2021-08-10T19:26:27.999Z</time>
      </trkpt>
      <trkpt lat="50.51956" lon="1.57844">
        <ele>4</ele>
        <time>2021-08-10T19:26:32.999Z</time>
      </trkpt>
      <trkpt lat="50.51951" lon="1.57842">
        <ele>4</ele>
        <time>2021-08-10T19:26:37.999Z</time>
      </trkpt>
      <trkpt lat="50.51946" lon="1.57841">
        <ele>4</ele>
        <time>2021-08-10T19:26:41.999Z</time>
      </trkpt>
      <trkpt lat="50.5194" lon="1.5784">
        <ele>4</ele>
        <time>2021-08-10T19:26:46.999Z</time>
      </trkpt>
      <trkpt lat="50.51933" lon="1.57839">
        <ele>4</ele>
        <time>2021-08-10T19:26:51.999Z</time>
      </trkpt>
      <trkpt lat="50.51928" lon="1.57839">
        <ele>4</ele>
        <time>2021-08-10T19:26:55.999Z</time>
      </trkpt>
      <trkpt lat="50.51923" lon="1.57838">
        <ele>4</ele>
        <time>2021-08-10T19:26:59.999Z</time>
      </trkpt>
      <trkpt lat="50.51918" lon="1.57838">
        <ele>4</ele>
        <time>2021-08-10T19:27:03.999Z</time>
      </trkpt>
      <trkpt lat="50.51912" lon="1.57837">
        <ele>4</ele>
        <time>2021-08-10T19:27:08.999Z</time>
      </trkpt>
      <trkpt lat="50.51906" lon="1.57834">
        <ele>4</ele>
        <time>2021-08-10T19:27:13.999Z</time>
      </trkpt>
      <trkpt lat="50.51901" lon="1.57834">
        <ele>4</ele>
        <time>2021-08-10T19:27:17.999Z</time>
      </trkpt>
      <trkpt lat="50.51895" lon="1.57833">
        <ele>4</ele>
        <time>2021-08-10T19:27:22.999Z</time>
      </trkpt>
      <trkpt lat="50.5189" lon="1.57834">
        <ele>4</ele>
        <time>2021-08-10T19:27:26.999Z</time>
      </trkpt>
      <trkpt lat="50.51883" lon="1.57835">
        <ele>4</ele>
        <time>2021-08-10T19:27:31.999Z</time>
      </trkpt>
      <trkpt lat="50.51878" lon="1.57834">
        <ele>4</ele>
        <time>2021-08-10T19:27:35.999Z</time>
      </trkpt>
      <trkpt lat="50.51872" lon="1.57832">
        <ele>4</ele>
        <time>2021-08-10T19:27:40.999Z</time>
      </trkpt>
      <trkpt lat="50.51867" lon="1.57831">
        <ele>4</ele>
        <time>2021-08-10T19:27:44.999Z</time>
      </trkpt>
      <trkpt lat="50.51862" lon="1.57831">
        <ele>4</ele>
        <time>2021-08-10T19:27:48.999Z</time>
      </trkpt>
      <trkpt lat="50.51856" lon="1.57831">
        <ele>4</ele>
        <time>2021-08-10T19:27:53.999Z</time>
      </trkpt>
      <trkpt lat="50.51851" lon="1.5783">
        <ele>4</ele>
        <time>2021-08-10T19:27:57.999Z</time>
      </trkpt>
      <trkpt lat="50.51845" lon="1.57827">
        <ele>4</ele>
        <time>2021-08-10T19:28:02.999Z</time>
      </trkpt>
      <trkpt lat="50.51839" lon="1.57826">
        <ele>4</ele>
        <time>2021-08-10T19:28:07.999Z</time>
      </trkpt>
      <trkpt lat="50.51834" lon="1.57824">
        <ele>4</ele>
        <time>2021-08-10T19:28:11.999Z</time>
      </trkpt>
      <trkpt lat="50.51828" lon="1.57824">
        <ele>4</ele>
        <time>2021-08-10T19:28:15.999Z</time>
      </trkpt>
      <trkpt lat="50.51822" lon="1.57823">
        <ele>4</ele>
        <time>2021-08-10T19:28:20.999Z</time>
      </trkpt>
      <trkpt lat="50.51816" lon="1.57825">
        <ele>4</ele>
        <time>2021-08-10T19:28:25.999Z</time>
      </trkpt>
      <trkpt lat="50.51809" lon="1.57823">
        <ele>4</ele>
        <time>2021-08-10T19:28:30.999Z</time>
      </trkpt>
      <trkpt lat="50.51804" lon="1.57821">
        <ele>4</ele>
        <time>2021-08-10T19:28:34.999Z</time>
      </trkpt>
      <trkpt lat="50.51798" lon="1.57819">
        <ele>2</ele>
        <time>2021-08-10T19:28:39.999Z</time>
      </trkpt>
      <trkpt lat="50.51791" lon="1.57819">
        <ele>2</ele>
        <time>2021-08-10T19:28:44.999Z</time>
      </trkpt>
      <trkpt lat="50.51786" lon="1.57818">
        <ele>2</ele>
        <time>2021-08-10T19:28:49.999Z</time>
      </trkpt>
      <trkpt lat="50.51782" lon="1.57817">
        <ele>2</ele>
        <time>2021-08-10T19:28:53.999Z</time>
      </trkpt>
      <trkpt lat="50.51777" lon="1.57817">
        <ele>2</ele>
        <time>2021-08-10T19:28:58.999Z</time>
      </trkpt>
      <trkpt lat="50.5177" lon="1.57815">
        <ele>2</ele>
        <time>2021-08-10T19:29:03.999Z</time>
      </trkpt>
      <trkpt lat="50.51764" lon="1.57815">
        <ele>3</ele>
        <time>2021-08-10T19:29:08.999Z</time>
      </trkpt>
      <trkpt lat="50.51757" lon="1.57814">
        <ele>3</ele>
        <time>2021-08-10T19:29:13.999Z</time>
      </trkpt>
      <trkpt lat="50.5175" lon="1.57813">
        <ele>3</ele>
        <time>2021-08-10T19:29:18.999Z</time>
      </trkpt>
      <trkpt lat="50.51743" lon="1.57812">
        <ele>3</ele>
        <time>2021-08-10T19:29:23.999Z</time>
      </trkpt>
      <trkpt lat="50.51737" lon="1.5781">
        <ele>3</ele>
        <time>2021-08-10T19:29:28.999Z</time>
      </trkpt>
      <trkpt lat="50.51732" lon="1.5781">
        <ele>4</ele>
        <time>2021-08-10T19:29:33.999Z</time>
      </trkpt>
      <trkpt lat="50.51725" lon="1.57808">
        <ele>4</ele>
        <time>2021-08-10T19:29:38.999Z</time>
      </trkpt>
      <trkpt lat="50.5172" lon="1.57806">
        <ele>4</ele>
        <time>2021-08-10T19:29:43.999Z</time>
      </trkpt>
      <trkpt lat="50.51714" lon="1.57806">
        <ele>4</ele>
        <time>2021-08-10T19:29:48.999Z</time>
      </trkpt>
      <trkpt lat="50.51708" lon="1.57806">
        <ele>5</ele>
        <time>2021-08-10T19:29:53.999Z</time>
      </trkpt>
      <trkpt lat="50.51703" lon="1.57807">
        <ele>5</ele>
        <time>2021-08-10T19:29:57.999Z</time>
      </trkpt>
      <trkpt lat="50.51697" lon="1.57807">
        <ele>5</ele>
        <time>2021-08-10T19:30:02.999Z</time>
      </trkpt>
      <trkpt lat="50.51692" lon="1.57807">
        <ele>5</ele>
        <time>2021-08-10T19:30:06.999Z</time>
      </trkpt>
      <trkpt lat="50.51685" lon="1.57806">
        <ele>5</ele>
        <time>2021-08-10T19:30:11.999Z</time>
      </trkpt>
      <trkpt lat="50.51679" lon="1.57806">
        <ele>6</ele>
        <time>2021-08-10T19:30:16.999Z</time>
      </trkpt>
      <trkpt lat="50.51674" lon="1.57805">
        <ele>6</ele>
        <time>2021-08-10T19:30:21.999Z</time>
      </trkpt>
      <trkpt lat="50.51669" lon="1.57804">
        <ele>6</ele>
        <time>2021-08-10T19:30:25.999Z</time>
      </trkpt>
      <trkpt lat="50.51663" lon="1.57802">
        <ele>6</ele>
        <time>2021-08-10T19:30:30.999Z</time>
      </trkpt>
      <trkpt lat="50.51657" lon="1.57801">
        <ele>6</ele>
        <time>2021-08-10T19:30:35.999Z</time>
      </trkpt>
      <trkpt lat="50.51652" lon="1.57802">
        <ele>7</ele>
        <time>2021-08-10T19:30:39.999Z</time>
      </trkpt>
      <trkpt lat="50.51646" lon="1.57806">
        <ele>7</ele>
        <time>2021-08-10T19:30:44.999Z</time>
      </trkpt>
      <trkpt lat="50.51645" lon="1.57801">
        <ele>7</ele>
        <time>2021-08-10T19:30:49.999Z</time>
      </trkpt>
      <trkpt lat="50.51642" lon="1.57794">
        <ele>7</ele>
        <time>2021-08-10T19:30:54.999Z</time>
      </trkpt>
      <trkpt lat="50.5164" lon="1.57792">
        <ele>7</ele>
        <time>2021-08-10T19:30:59.999Z</time>
      </trkpt>
      <trkpt lat="50.5164" lon="1.57792">
        <ele>7</ele>
        <time>2021-08-10T19:31:23.999Z</time>
      </trkpt>
      <trkpt lat="50.5164" lon="1.57792">
        <ele>7</ele>
        <time>2021-08-10T19:31:28.999Z</time>
      </trkpt>
      <trkpt lat="50.51639" lon="1.57795">
        <ele>7</ele>
        <time>2021-08-10T19:31:33.999Z</time>
      </trkpt>
      <trkpt lat="50.51639" lon="1.57805">
        <ele>7</ele>
        <time>2021-08-10T19:31:38.999Z</time>
      </trkpt>
      <trkpt lat="50.51638" lon="1.57811">
        <ele>7</ele>
        <time>2021-08-10T19:31:42.999Z</time>
      </trkpt>
      <trkpt lat="50.51632" lon="1.57815">
        <ele>7</ele>
        <time>2021-08-10T19:32:37.999Z</time>
      </trkpt>
      <trkpt lat="50.51629" lon="1.57811">
        <ele>7</ele>
        <time>2021-08-10T19:32:42.999Z</time>
      </trkpt>
      <trkpt lat="50.51627" lon="1.5781">
        <ele>7</ele>
        <time>2021-08-10T19:32:46.999Z</time>
      </trkpt>
      <trkpt lat="50.51625" lon="1.5781">
        <ele>7</ele>
        <time>2021-08-10T19:32:50.999Z</time>
      </trkpt>
      <trkpt lat="50.51624" lon="1.57807">
        <ele>7</ele>
        <time>2021-08-10T19:32:54.999Z</time>
      </trkpt>
      <trkpt lat="50.51621" lon="1.57801">
        <ele>7</ele>
        <time>2021-08-10T19:32:59.999Z</time>
      </trkpt>
      <trkpt lat="50.51618" lon="1.57797">
        <ele>7</ele>
        <time>2021-08-10T19:33:04.999Z</time>
      </trkpt>
      <trkpt lat="50.51618" lon="1.57798">
        <ele>7</ele>
        <time>2021-08-10T19:33:08.999Z</time>
      </trkpt>
      <trkpt lat="50.5161" lon="1.57798">
        <ele>7</ele>
        <time>2021-08-10T19:33:13.999Z</time>
      </trkpt>
      <trkpt lat="50.51606" lon="1.57798">
        <ele>7</ele>
        <time>2021-08-10T19:33:18.999Z</time>
      </trkpt>
      <trkpt lat="50.51605" lon="1.57795">
        <ele>7</ele>
        <time>2021-08-10T19:33:23.999Z</time>
      </trkpt>
      <trkpt lat="50.51601" lon="1.57797">
        <ele>7</ele>
        <time>2021-08-10T19:33:27.999Z</time>
      </trkpt>
      <trkpt lat="50.51594" lon="1.57796">
        <ele>8</ele>
        <time>2021-08-10T19:33:32.999Z</time>
      </trkpt>
      <trkpt lat="50.51587" lon="1.57794">
        <ele>8</ele>
        <time>2021-08-10T19:33:37.999Z</time>
      </trkpt>
      <trkpt lat="50.51583" lon="1.57792">
        <ele>8</ele>
        <time>2021-08-10T19:33:41.999Z</time>
      </trkpt>
      <trkpt lat="50.51576" lon="1.57792">
        <ele>8</ele>
        <time>2021-08-10T19:33:46.999Z</time>
      </trkpt>
      <trkpt lat="50.51569" lon="1.57791">
        <ele>9</ele>
        <time>2021-08-10T19:33:51.999Z</time>
      </trkpt>
      <trkpt lat="50.51564" lon="1.5779">
        <ele>9</ele>
        <time>2021-08-10T19:33:56.999Z</time>
      </trkpt>
      <trkpt lat="50.51558" lon="1.57789">
        <ele>9</ele>
        <time>2021-08-10T19:34:01.999Z</time>
      </trkpt>
      <trkpt lat="50.51551" lon="1.57789">
        <ele>9</ele>
        <time>2021-08-10T19:34:06.999Z</time>
      </trkpt>
      <trkpt lat="50.51545" lon="1.57789">
        <ele>9</ele>
        <time>2021-08-10T19:34:11.999Z</time>
      </trkpt>
      <trkpt lat="50.51537" lon="1.57788">
        <ele>9</ele>
        <time>2021-08-10T19:34:53.999Z</time>
      </trkpt>
      <trkpt lat="50.51537" lon="1.57792">
        <ele>10</ele>
        <time>2021-08-10T19:34:57.999Z</time>
      </trkpt>
      <trkpt lat="50.51536" lon="1.57802">
        <ele>10</ele>
        <time>2021-08-10T19:35:02.999Z</time>
      </trkpt>
      <trkpt lat="50.51533" lon="1.57805">
        <ele>10</ele>
        <time>2021-08-10T19:35:06.999Z</time>
      </trkpt>
      <trkpt lat="50.51532" lon="1.57811">
        <ele>10</ele>
        <time>2021-08-10T19:35:10.999Z</time>
      </trkpt>
      <trkpt lat="50.51537" lon="1.57817">
        <ele>10</ele>
        <time>2021-08-10T19:35:15.999Z</time>
      </trkpt>
      <trkpt lat="50.5154" lon="1.57823">
        <ele>12</ele>
        <time>2021-08-10T19:35:20.999Z</time>
      </trkpt>
      <trkpt lat="50.51545" lon="1.57831">
        <ele>12</ele>
        <time>2021-08-10T19:35:25.999Z</time>
      </trkpt>
      <trkpt lat="50.51541" lon="1.57837">
        <ele>12</ele>
        <time>2021-08-10T19:35:30.999Z</time>
      </trkpt>
      <trkpt lat="50.51537" lon="1.57843">
        <ele>12</ele>
        <time>2021-08-10T19:35:35.999Z</time>
      </trkpt>
      <trkpt lat="50.51531" lon="1.57844">
        <ele>12</ele>
        <time>2021-08-10T19:35:40.999Z</time>
      </trkpt>
      <trkpt lat="50.51526" lon="1.57841">
        <ele>12</ele>
        <time>2021-08-10T19:35:44.999Z</time>
      </trkpt>
      <trkpt lat="50.51521" lon="1.57839">
        <ele>12</ele>
        <time>2021-08-10T19:35:49.999Z</time>
      </trkpt>
      <trkpt lat="50.51515" lon="1.57839">
        <ele>12</ele>
        <time>2021-08-10T19:35:54.999Z</time>
      </trkpt>
      <trkpt lat="50.51509" lon="1.57838">
        <ele>13</ele>
        <time>2021-08-10T19:35:59.999Z</time>
      </trkpt>
      <trkpt lat="50.51503" lon="1.57838">
        <ele>13</ele>
        <time>2021-08-10T19:36:03.999Z</time>
      </trkpt>
      <trkpt lat="50.51498" lon="1.57838">
        <ele>13</ele>
        <time>2021-08-10T19:36:08.999Z</time>
      </trkpt>
      <trkpt lat="50.51493" lon="1.57837">
        <ele>13</ele>
        <time>2021-08-10T19:36:12.999Z</time>
      </trkpt>
      <trkpt lat="50.51487" lon="1.57836">
        <ele>13</ele>
        <time>2021-08-10T19:36:17.999Z</time>
      </trkpt>
      <trkpt lat="50.51481" lon="1.57835">
        <ele>15</ele>
        <time>2021-08-10T19:36:21.999Z</time>
      </trkpt>
      <trkpt lat="50.51475" lon="1.57833">
        <ele>15</ele>
        <time>2021-08-10T19:36:26.999Z</time>
      </trkpt>
      <trkpt lat="50.51469" lon="1.57831">
        <ele>15</ele>
        <time>2021-08-10T19:36:30.999Z</time>
      </trkpt>
      <trkpt lat="50.51464" lon="1.57829">
        <ele>15</ele>
        <time>2021-08-10T19:36:35.999Z</time>
      </trkpt>
      <trkpt lat="50.51458" lon="1.57827">
        <ele>15</ele>
        <time>2021-08-10T19:36:40.999Z</time>
      </trkpt>
      <trkpt lat="50.51454" lon="1.57826">
        <ele>15</ele>
        <time>2021-08-10T19:36:44.999Z</time>
      </trkpt>
      <trkpt lat="50.51448" lon="1.57827">
        <ele>15</ele>
        <time>2021-08-10T19:36:49.999Z</time>
      </trkpt>
      <trkpt lat="50.51442" lon="1.57827">
        <ele>15</ele>
        <time>2021-08-10T19:36:54.999Z</time>
      </trkpt>
      <trkpt lat="50.51437" lon="1.57827">
        <ele>15</ele>
        <time>2021-08-10T19:36:59.999Z</time>
      </trkpt>
      <trkpt lat="50.51432" lon="1.57826">
        <ele>15</ele>
        <time>2021-08-10T19:37:04.999Z</time>
      </trkpt>
      <trkpt lat="50.51428" lon="1.57826">
        <ele>15</ele>
        <time>2021-08-10T19:37:08.999Z</time>
      </trkpt>
      <trkpt lat="50.51422" lon="1.57826">
        <ele>15</ele>
        <time>2021-08-10T19:37:13.999Z</time>
      </trkpt>
      <trkpt lat="50.51418" lon="1.57826">
        <ele>15</ele>
        <time>2021-08-10T19:37:17.999Z</time>
      </trkpt>
      <trkpt lat="50.51414" lon="1.57825">
        <ele>15</ele>
        <time>2021-08-10T19:37:22.999Z</time>
      </trkpt>
    </trkseg>
  </trk>
</gpx>